
<gpx xmlns="http://www.topografix.com/GPX/1/1" xmlns:gpxx="http://www.garmin.com/xmlschemas/GpxExtensions/v3" xmlns:xsi="http://www.w3.org/2001/XMLSchema-instance" version="1.1" creator="Adze - http://kobotsw.com/apps/adze" xsi:schemaLocation="http://www.topografix.com/GPX/1/1 http://www.topografix.com/GPX/1/1/gpx.xsd http://www.garmin.com/xmlschemas/GpxExtensions/v3 http://www.garmin.com/xmlschemas/GpxExtensionsv3.xsd">
    <metadata>
        <name>Untitled Document</name>
        <link href="http://www.garmin.com"></link>
        <time>2018-01-29T05:09:20.814Z</time>
    </metadata>
    <wpt lon="101.205860" lat="14.340472">
        <time>2017-05-29T08:13:54Z</time>
        <name>Rabiangprai Valley Resort</name>
        <sym>Lodging</sym>
        <extensions>
            <gpxx:WaypointExtension xmlns:gpxx="http://www.garmin.com/xmlschemas/GpxExtensions/v3">
                <gpxx:DisplayMode>SymbolAndName</gpxx:DisplayMode>
            </gpxx:WaypointExtension>
        </extensions>
    </wpt>
    <trk>
        <name>Sunday</name>
        <extensions>
            <gpxx:TrackExtension xmlns:gpxx="http://www.garmin.com/xmlschemas/GpxExtensions/v3">
                <gpxx:DisplayColor>Green</gpxx:DisplayColor>
            </gpxx:TrackExtension>
        </extensions>
        <trkseg>
            <trkpt lon="101.206754" lat="14.341110">
                <ele>110.690000</ele>
                <time>2017-05-28T03:01:35Z</time>
            </trkpt>
            <trkpt lon="101.206750" lat="14.341113">
                <ele>110.690000</ele>
                <time>2017-05-28T03:01:36Z</time>
            </trkpt>
            <trkpt lon="101.206660" lat="14.341113">
                <ele>110.210000</ele>
                <time>2017-05-28T03:01:49Z</time>
            </trkpt>
            <trkpt lon="101.206656" lat="14.341105">
                <ele>110.210000</ele>
                <time>2017-05-28T03:01:52Z</time>
            </trkpt>
            <trkpt lon="101.206605" lat="14.341114">
                <ele>110.210000</ele>
                <time>2017-05-28T03:01:57Z</time>
            </trkpt>
            <trkpt lon="101.206596" lat="14.341175">
                <ele>110.210000</ele>
                <time>2017-05-28T03:02:06Z</time>
            </trkpt>
            <trkpt lon="101.206374" lat="14.341411">
                <ele>108.290000</ele>
                <time>2017-05-28T03:02:18Z</time>
            </trkpt>
            <trkpt lon="101.206333" lat="14.341436">
                <ele>108.290000</ele>
                <time>2017-05-28T03:02:19Z</time>
            </trkpt>
            <trkpt lon="101.206156" lat="14.341452">
                <ele>107.320000</ele>
                <time>2017-05-28T03:02:23Z</time>
            </trkpt>
            <trkpt lon="101.205871" lat="14.341415">
                <ele>105.400000</ele>
                <time>2017-05-28T03:02:28Z</time>
            </trkpt>
            <trkpt lon="101.205665" lat="14.341220">
                <ele>103.480000</ele>
                <time>2017-05-28T03:02:36Z</time>
            </trkpt>
            <trkpt lon="101.205580" lat="14.340921">
                <ele>101.080000</ele>
                <time>2017-05-28T03:02:43Z</time>
            </trkpt>
            <trkpt lon="101.205620" lat="14.340767">
                <ele>101.560000</ele>
                <time>2017-05-28T03:02:46Z</time>
            </trkpt>
            <trkpt lon="101.205685" lat="14.340385">
                <ele>100.600000</ele>
                <time>2017-05-28T03:02:57Z</time>
            </trkpt>
            <trkpt lon="101.205505" lat="14.340250">
                <ele>100.110000</ele>
                <time>2017-05-28T03:03:07Z</time>
            </trkpt>
            <trkpt lon="101.205450" lat="14.340196">
                <ele>99.630000</ele>
                <time>2017-05-28T03:03:12Z</time>
            </trkpt>
            <trkpt lon="101.205448" lat="14.340177">
                <ele>99.630000</ele>
                <time>2017-05-28T03:03:16Z</time>
            </trkpt>
            <trkpt lon="101.205474" lat="14.340151">
                <ele>99.630000</ele>
                <time>2017-05-28T03:03:20Z</time>
            </trkpt>
            <trkpt lon="101.205469" lat="14.340133">
                <ele>99.630000</ele>
                <time>2017-05-28T03:03:22Z</time>
            </trkpt>
            <trkpt lon="101.205534" lat="14.339998">
                <ele>100.110000</ele>
                <time>2017-05-28T03:03:36Z</time>
            </trkpt>
            <trkpt lon="101.205536" lat="14.339994">
                <ele>100.110000</ele>
                <time>2017-05-28T03:03:37Z</time>
            </trkpt>
            <trkpt lon="101.205579" lat="14.339819">
                <ele>99.630000</ele>
                <time>2017-05-28T03:03:47Z</time>
            </trkpt>
            <trkpt lon="101.205603" lat="14.339812">
                <ele>99.630000</ele>
                <time>2017-05-28T03:03:48Z</time>
            </trkpt>
            <trkpt lon="101.206074" lat="14.339526">
                <ele>99.630000</ele>
                <time>2017-05-28T03:04:07Z</time>
            </trkpt>
            <trkpt lon="101.206372" lat="14.339195">
                <ele>100.110000</ele>
                <time>2017-05-28T03:04:24Z</time>
            </trkpt>
            <trkpt lon="101.206470" lat="14.338829">
                <ele>100.600000</ele>
                <time>2017-05-28T03:04:40Z</time>
            </trkpt>
            <trkpt lon="101.206437" lat="14.338474">
                <ele>100.110000</ele>
                <time>2017-05-28T03:04:52Z</time>
            </trkpt>
            <trkpt lon="101.206385" lat="14.338061">
                <ele>100.110000</ele>
                <time>2017-05-28T03:05:06Z</time>
            </trkpt>
            <trkpt lon="101.206469" lat="14.337712">
                <ele>100.110000</ele>
                <time>2017-05-28T03:05:14Z</time>
            </trkpt>
            <trkpt lon="101.206712" lat="14.337340">
                <ele>100.600000</ele>
                <time>2017-05-28T03:05:25Z</time>
            </trkpt>
            <trkpt lon="101.207323" lat="14.336964">
                <ele>100.110000</ele>
                <time>2017-05-28T03:05:43Z</time>
            </trkpt>
            <trkpt lon="101.207678" lat="14.336856">
                <ele>99.630000</ele>
                <time>2017-05-28T03:05:52Z</time>
            </trkpt>
            <trkpt lon="101.207759" lat="14.336821">
                <ele>99.150000</ele>
                <time>2017-05-28T03:05:54Z</time>
            </trkpt>
            <trkpt lon="101.208182" lat="14.336513">
                <ele>101.080000</ele>
                <time>2017-05-28T03:06:08Z</time>
            </trkpt>
            <trkpt lon="101.208557" lat="14.336584">
                <ele>99.630000</ele>
                <time>2017-05-28T03:06:21Z</time>
            </trkpt>
            <trkpt lon="101.208678" lat="14.336661">
                <ele>98.670000</ele>
                <time>2017-05-28T03:06:24Z</time>
            </trkpt>
            <trkpt lon="101.209165" lat="14.336758">
                <ele>99.150000</ele>
                <time>2017-05-28T03:06:37Z</time>
            </trkpt>
            <trkpt lon="101.209596" lat="14.336611">
                <ele>100.110000</ele>
                <time>2017-05-28T03:06:50Z</time>
            </trkpt>
            <trkpt lon="101.209669" lat="14.336582">
                <ele>99.630000</ele>
                <time>2017-05-28T03:06:52Z</time>
            </trkpt>
            <trkpt lon="101.209913" lat="14.336381">
                <ele>99.630000</ele>
                <time>2017-05-28T03:07:00Z</time>
            </trkpt>
            <trkpt lon="101.209919" lat="14.336249">
                <ele>98.670000</ele>
                <time>2017-05-28T03:07:04Z</time>
            </trkpt>
            <trkpt lon="101.209872" lat="14.336129">
                <ele>99.630000</ele>
                <time>2017-05-28T03:07:07Z</time>
            </trkpt>
            <trkpt lon="101.209414" lat="14.335701">
                <ele>100.110000</ele>
                <time>2017-05-28T03:07:20Z</time>
            </trkpt>
            <trkpt lon="101.209238" lat="14.335522">
                <ele>98.190000</ele>
                <time>2017-05-28T03:07:24Z</time>
            </trkpt>
            <trkpt lon="101.209005" lat="14.335206">
                <ele>99.150000</ele>
                <time>2017-05-28T03:07:31Z</time>
            </trkpt>
            <trkpt lon="101.208904" lat="14.335087">
                <ele>99.630000</ele>
                <time>2017-05-28T03:07:34Z</time>
            </trkpt>
            <trkpt lon="101.208801" lat="14.334981">
                <ele>100.600000</ele>
                <time>2017-05-28T03:07:37Z</time>
            </trkpt>
            <trkpt lon="101.208496" lat="14.334577">
                <ele>99.630000</ele>
                <time>2017-05-28T03:07:47Z</time>
            </trkpt>
            <trkpt lon="101.208183" lat="14.334126">
                <ele>98.190000</ele>
                <time>2017-05-28T03:07:58Z</time>
            </trkpt>
            <trkpt lon="101.208164" lat="14.334090">
                <ele>97.230000</ele>
                <time>2017-05-28T03:07:59Z</time>
            </trkpt>
            <trkpt lon="101.207992" lat="14.333928">
                <ele>97.710000</ele>
                <time>2017-05-28T03:08:04Z</time>
            </trkpt>
            <trkpt lon="101.207850" lat="14.333798">
                <ele>97.710000</ele>
                <time>2017-05-28T03:08:08Z</time>
            </trkpt>
            <trkpt lon="101.207665" lat="14.333642">
                <ele>97.710000</ele>
                <time>2017-05-28T03:08:13Z</time>
            </trkpt>
            <trkpt lon="101.207501" lat="14.333327">
                <ele>98.670000</ele>
                <time>2017-05-28T03:08:21Z</time>
            </trkpt>
            <trkpt lon="101.207350" lat="14.332934">
                <ele>102.040000</ele>
                <time>2017-05-28T03:08:35Z</time>
            </trkpt>
            <trkpt lon="101.207227" lat="14.332799">
                <ele>102.040000</ele>
                <time>2017-05-28T03:08:40Z</time>
            </trkpt>
            <trkpt lon="101.207121" lat="14.332602">
                <ele>101.080000</ele>
                <time>2017-05-28T03:08:45Z</time>
            </trkpt>
            <trkpt lon="101.207092" lat="14.332326">
                <ele>97.230000</ele>
                <time>2017-05-28T03:08:50Z</time>
            </trkpt>
            <trkpt lon="101.206957" lat="14.332125">
                <ele>97.230000</ele>
                <time>2017-05-28T03:08:55Z</time>
            </trkpt>
            <trkpt lon="101.206876" lat="14.332081">
                <ele>97.710000</ele>
                <time>2017-05-28T03:08:57Z</time>
            </trkpt>
            <trkpt lon="101.206755" lat="14.331913">
                <ele>98.190000</ele>
                <time>2017-05-28T03:09:02Z</time>
            </trkpt>
            <trkpt lon="101.206757" lat="14.331680">
                <ele>97.710000</ele>
                <time>2017-05-28T03:09:07Z</time>
            </trkpt>
            <trkpt lon="101.206622" lat="14.331429">
                <ele>97.230000</ele>
                <time>2017-05-28T03:09:13Z</time>
            </trkpt>
            <trkpt lon="101.206448" lat="14.331405">
                <ele>97.710000</ele>
                <time>2017-05-28T03:09:17Z</time>
            </trkpt>
            <trkpt lon="101.206334" lat="14.331449">
                <ele>97.710000</ele>
                <time>2017-05-28T03:09:20Z</time>
            </trkpt>
            <trkpt lon="101.206164" lat="14.331576">
                <ele>97.710000</ele>
                <time>2017-05-28T03:09:25Z</time>
            </trkpt>
            <trkpt lon="101.206042" lat="14.331647">
                <ele>97.230000</ele>
                <time>2017-05-28T03:09:28Z</time>
            </trkpt>
            <trkpt lon="101.205634" lat="14.331601">
                <ele>96.270000</ele>
                <time>2017-05-28T03:09:36Z</time>
            </trkpt>
            <trkpt lon="101.205205" lat="14.331434">
                <ele>95.790000</ele>
                <time>2017-05-28T03:09:44Z</time>
            </trkpt>
            <trkpt lon="101.205152" lat="14.331408">
                <ele>95.310000</ele>
                <time>2017-05-28T03:09:45Z</time>
            </trkpt>
            <trkpt lon="101.205002" lat="14.331304">
                <ele>93.870000</ele>
                <time>2017-05-28T03:09:48Z</time>
            </trkpt>
            <trkpt lon="101.204837" lat="14.331221">
                <ele>94.350000</ele>
                <time>2017-05-28T03:09:51Z</time>
            </trkpt>
            <trkpt lon="101.204628" lat="14.331160">
                <ele>95.310000</ele>
                <time>2017-05-28T03:09:55Z</time>
            </trkpt>
            <trkpt lon="101.204580" lat="14.331146">
                <ele>95.790000</ele>
                <time>2017-05-28T03:09:56Z</time>
            </trkpt>
            <trkpt lon="101.204469" lat="14.331121">
                <ele>97.710000</ele>
                <time>2017-05-28T03:09:59Z</time>
            </trkpt>
            <trkpt lon="101.204389" lat="14.331114">
                <ele>98.670000</ele>
                <time>2017-05-28T03:10:02Z</time>
            </trkpt>
            <trkpt lon="101.204098" lat="14.331016">
                <ele>99.630000</ele>
                <time>2017-05-28T03:10:12Z</time>
            </trkpt>
            <trkpt lon="101.204028" lat="14.330950">
                <ele>98.670000</ele>
                <time>2017-05-28T03:10:14Z</time>
            </trkpt>
            <trkpt lon="101.203806" lat="14.330879">
                <ele>96.270000</ele>
                <time>2017-05-28T03:10:18Z</time>
            </trkpt>
            <trkpt lon="101.203565" lat="14.330920">
                <ele>95.310000</ele>
                <time>2017-05-28T03:10:22Z</time>
            </trkpt>
            <trkpt lon="101.203502" lat="14.330921">
                <ele>94.830000</ele>
                <time>2017-05-28T03:10:23Z</time>
            </trkpt>
            <trkpt lon="101.203440" lat="14.330913">
                <ele>94.830000</ele>
                <time>2017-05-28T03:10:24Z</time>
            </trkpt>
            <trkpt lon="101.203379" lat="14.330894">
                <ele>93.870000</ele>
                <time>2017-05-28T03:10:25Z</time>
            </trkpt>
            <trkpt lon="101.203319" lat="14.330862">
                <ele>93.870000</ele>
                <time>2017-05-28T03:10:26Z</time>
            </trkpt>
            <trkpt lon="101.203258" lat="14.330820">
                <ele>92.900000</ele>
                <time>2017-05-28T03:10:27Z</time>
            </trkpt>
            <trkpt lon="101.203197" lat="14.330772">
                <ele>92.420000</ele>
                <time>2017-05-28T03:10:28Z</time>
            </trkpt>
            <trkpt lon="101.203020" lat="14.330600">
                <ele>88.580000</ele>
                <time>2017-05-28T03:10:31Z</time>
            </trkpt>
            <trkpt lon="101.202859" lat="14.330429">
                <ele>85.690000</ele>
                <time>2017-05-28T03:10:34Z</time>
            </trkpt>
            <trkpt lon="101.202665" lat="14.330202">
                <ele>81.850000</ele>
                <time>2017-05-28T03:10:38Z</time>
            </trkpt>
            <trkpt lon="101.202561" lat="14.330111">
                <ele>80.410000</ele>
                <time>2017-05-28T03:10:40Z</time>
            </trkpt>
            <trkpt lon="101.202501" lat="14.330078">
                <ele>78.970000</ele>
                <time>2017-05-28T03:10:41Z</time>
            </trkpt>
            <trkpt lon="101.202434" lat="14.330056">
                <ele>78.480000</ele>
                <time>2017-05-28T03:10:42Z</time>
            </trkpt>
            <trkpt lon="101.202358" lat="14.330043">
                <ele>77.520000</ele>
                <time>2017-05-28T03:10:43Z</time>
            </trkpt>
            <trkpt lon="101.202274" lat="14.330034">
                <ele>76.080000</ele>
                <time>2017-05-28T03:10:44Z</time>
            </trkpt>
            <trkpt lon="101.201889" lat="14.330015">
                <ele>72.240000</ele>
                <time>2017-05-28T03:10:48Z</time>
            </trkpt>
            <trkpt lon="101.201786" lat="14.330014">
                <ele>72.240000</ele>
                <time>2017-05-28T03:10:49Z</time>
            </trkpt>
            <trkpt lon="101.200854" lat="14.329906">
                <ele>72.240000</ele>
                <time>2017-05-28T03:11:00Z</time>
            </trkpt>
            <trkpt lon="101.200122" lat="14.329678">
                <ele>71.760000</ele>
                <time>2017-05-28T03:11:11Z</time>
            </trkpt>
            <trkpt lon="101.199257" lat="14.329546">
                <ele>69.830000</ele>
                <time>2017-05-28T03:11:24Z</time>
            </trkpt>
            <trkpt lon="101.199063" lat="14.329486">
                <ele>68.870000</ele>
                <time>2017-05-28T03:11:27Z</time>
            </trkpt>
            <trkpt lon="101.198946" lat="14.329425">
                <ele>68.390000</ele>
                <time>2017-05-28T03:11:29Z</time>
            </trkpt>
            <trkpt lon="101.198893" lat="14.329387">
                <ele>68.390000</ele>
                <time>2017-05-28T03:11:30Z</time>
            </trkpt>
            <trkpt lon="101.198843" lat="14.329346">
                <ele>68.870000</ele>
                <time>2017-05-28T03:11:31Z</time>
            </trkpt>
            <trkpt lon="101.198795" lat="14.329302">
                <ele>68.870000</ele>
                <time>2017-05-28T03:11:32Z</time>
            </trkpt>
            <trkpt lon="101.198749" lat="14.329257">
                <ele>68.870000</ele>
                <time>2017-05-28T03:11:33Z</time>
            </trkpt>
            <trkpt lon="101.198665" lat="14.329166">
                <ele>68.870000</ele>
                <time>2017-05-28T03:11:35Z</time>
            </trkpt>
            <trkpt lon="101.198639" lat="14.329120">
                <ele>68.390000</ele>
                <time>2017-05-28T03:11:36Z</time>
            </trkpt>
            <trkpt lon="101.198631" lat="14.329075">
                <ele>68.870000</ele>
                <time>2017-05-28T03:11:37Z</time>
            </trkpt>
            <trkpt lon="101.198639" lat="14.329032">
                <ele>68.390000</ele>
                <time>2017-05-28T03:11:38Z</time>
            </trkpt>
            <trkpt lon="101.198664" lat="14.328993">
                <ele>68.390000</ele>
                <time>2017-05-28T03:11:39Z</time>
            </trkpt>
            <trkpt lon="101.198700" lat="14.328953">
                <ele>68.390000</ele>
                <time>2017-05-28T03:11:40Z</time>
            </trkpt>
            <trkpt lon="101.198740" lat="14.328910">
                <ele>67.910000</ele>
                <time>2017-05-28T03:11:41Z</time>
            </trkpt>
            <trkpt lon="101.199389" lat="14.328139">
                <ele>67.430000</ele>
                <time>2017-05-28T03:11:56Z</time>
            </trkpt>
            <trkpt lon="101.200313" lat="14.327057">
                <ele>65.990000</ele>
                <time>2017-05-28T03:12:17Z</time>
            </trkpt>
            <trkpt lon="101.201168" lat="14.326088">
                <ele>65.030000</ele>
                <time>2017-05-28T03:12:36Z</time>
            </trkpt>
            <trkpt lon="101.201978" lat="14.325137">
                <ele>64.070000</ele>
                <time>2017-05-28T03:12:54Z</time>
            </trkpt>
            <trkpt lon="101.202781" lat="14.324102">
                <ele>62.140000</ele>
                <time>2017-05-28T03:13:13Z</time>
            </trkpt>
            <trkpt lon="101.202821" lat="14.324075">
                <ele>62.140000</ele>
                <time>2017-05-28T03:13:14Z</time>
            </trkpt>
            <trkpt lon="101.202867" lat="14.324065">
                <ele>62.620000</ele>
                <time>2017-05-28T03:13:15Z</time>
            </trkpt>
            <trkpt lon="101.202917" lat="14.324065">
                <ele>62.140000</ele>
                <time>2017-05-28T03:13:16Z</time>
            </trkpt>
            <trkpt lon="101.202969" lat="14.324068">
                <ele>61.660000</ele>
                <time>2017-05-28T03:13:17Z</time>
            </trkpt>
            <trkpt lon="101.203027" lat="14.324066">
                <ele>62.140000</ele>
                <time>2017-05-28T03:13:18Z</time>
            </trkpt>
            <trkpt lon="101.203087" lat="14.324058">
                <ele>60.700000</ele>
                <time>2017-05-28T03:13:19Z</time>
            </trkpt>
            <trkpt lon="101.204224" lat="14.323869">
                <ele>61.660000</ele>
                <time>2017-05-28T03:13:40Z</time>
            </trkpt>
            <trkpt lon="101.204890" lat="14.323762">
                <ele>62.620000</ele>
                <time>2017-05-28T03:13:57Z</time>
            </trkpt>
            <trkpt lon="101.204954" lat="14.323747">
                <ele>63.100000</ele>
                <time>2017-05-28T03:13:59Z</time>
            </trkpt>
            <trkpt lon="101.204923" lat="14.323409">
                <ele>62.140000</ele>
                <time>2017-05-28T03:14:11Z</time>
            </trkpt>
            <trkpt lon="101.204920" lat="14.323174">
                <ele>61.660000</ele>
                <time>2017-05-28T03:14:19Z</time>
            </trkpt>
            <trkpt lon="101.204855" lat="14.323087">
                <ele>60.700000</ele>
                <time>2017-05-28T03:14:24Z</time>
            </trkpt>
            <trkpt lon="101.204694" lat="14.322839">
                <ele>59.740000</ele>
                <time>2017-05-28T03:14:36Z</time>
            </trkpt>
            <trkpt lon="101.204502" lat="14.322593">
                <ele>58.780000</ele>
                <time>2017-05-28T03:14:46Z</time>
            </trkpt>
            <trkpt lon="101.204328" lat="14.322509">
                <ele>58.780000</ele>
                <time>2017-05-28T03:14:52Z</time>
            </trkpt>
            <trkpt lon="101.204341" lat="14.322405">
                <ele>58.780000</ele>
                <time>2017-05-28T03:14:57Z</time>
            </trkpt>
            <trkpt lon="101.204607" lat="14.322107">
                <ele>57.340000</ele>
                <time>2017-05-28T03:15:13Z</time>
            </trkpt>
            <trkpt lon="101.204620" lat="14.322075">
                <ele>57.820000</ele>
                <time>2017-05-28T03:15:15Z</time>
            </trkpt>
            <trkpt lon="101.204658" lat="14.322053">
                <ele>57.820000</ele>
                <time>2017-05-28T03:15:20Z</time>
            </trkpt>
            <trkpt lon="101.204794" lat="14.322024">
                <ele>57.820000</ele>
                <time>2017-05-28T03:15:31Z</time>
            </trkpt>
            <trkpt lon="101.204864" lat="14.322008">
                <ele>57.340000</ele>
                <time>2017-05-28T03:15:44Z</time>
            </trkpt>
            <trkpt lon="101.204903" lat="14.321979">
                <ele>58.300000</ele>
                <time>2017-05-28T03:15:56Z</time>
            </trkpt>
            <trkpt lon="101.204969" lat="14.321929">
                <ele>58.300000</ele>
                <time>2017-05-28T03:16:06Z</time>
            </trkpt>
            <trkpt lon="101.205058" lat="14.321890">
                <ele>59.740000</ele>
                <time>2017-05-28T03:16:20Z</time>
            </trkpt>
            <trkpt lon="101.205134" lat="14.321833">
                <ele>60.220000</ele>
                <time>2017-05-28T03:16:27Z</time>
            </trkpt>
            <trkpt lon="101.205147" lat="14.321810">
                <ele>59.740000</ele>
                <time>2017-05-28T03:16:29Z</time>
            </trkpt>
            <trkpt lon="101.205320" lat="14.321696">
                <ele>59.260000</ele>
                <time>2017-05-28T03:16:37Z</time>
            </trkpt>
            <trkpt lon="101.205608" lat="14.321578">
                <ele>60.700000</ele>
                <time>2017-05-28T03:16:52Z</time>
            </trkpt>
            <trkpt lon="101.205906" lat="14.321470">
                <ele>61.660000</ele>
                <time>2017-05-28T03:17:06Z</time>
            </trkpt>
            <trkpt lon="101.206218" lat="14.321353">
                <ele>61.180000</ele>
                <time>2017-05-28T03:17:19Z</time>
            </trkpt>
            <trkpt lon="101.206461" lat="14.321292">
                <ele>61.660000</ele>
                <time>2017-05-28T03:17:31Z</time>
            </trkpt>
            <trkpt lon="101.206641" lat="14.321215">
                <ele>63.100000</ele>
                <time>2017-05-28T03:17:43Z</time>
            </trkpt>
            <trkpt lon="101.206678" lat="14.321153">
                <ele>64.070000</ele>
                <time>2017-05-28T03:17:54Z</time>
            </trkpt>
            <trkpt lon="101.206743" lat="14.321075">
                <ele>66.950000</ele>
                <time>2017-05-28T03:18:11Z</time>
            </trkpt>
            <trkpt lon="101.206816" lat="14.321001">
                <ele>69.350000</ele>
                <time>2017-05-28T03:18:27Z</time>
            </trkpt>
            <trkpt lon="101.206868" lat="14.320950">
                <ele>71.760000</ele>
                <time>2017-05-28T03:18:41Z</time>
            </trkpt>
            <trkpt lon="101.206948" lat="14.320882">
                <ele>73.680000</ele>
                <time>2017-05-28T03:18:56Z</time>
            </trkpt>
            <trkpt lon="101.207030" lat="14.320845">
                <ele>74.640000</ele>
                <time>2017-05-28T03:19:11Z</time>
            </trkpt>
            <trkpt lon="101.207202" lat="14.320737">
                <ele>72.240000</ele>
                <time>2017-05-28T03:19:23Z</time>
            </trkpt>
            <trkpt lon="101.207412" lat="14.320608">
                <ele>69.350000</ele>
                <time>2017-05-28T03:19:36Z</time>
            </trkpt>
            <trkpt lon="101.207507" lat="14.320528">
                <ele>65.990000</ele>
                <time>2017-05-28T03:19:43Z</time>
            </trkpt>
            <trkpt lon="101.207571" lat="14.320472">
                <ele>63.100000</ele>
                <time>2017-05-28T03:19:50Z</time>
            </trkpt>
            <trkpt lon="101.207616" lat="14.320418">
                <ele>61.660000</ele>
                <time>2017-05-28T03:20:00Z</time>
            </trkpt>
            <trkpt lon="101.207724" lat="14.320353">
                <ele>59.740000</ele>
                <time>2017-05-28T03:20:15Z</time>
            </trkpt>
            <trkpt lon="101.207752" lat="14.320346">
                <ele>59.260000</ele>
                <time>2017-05-28T03:20:24Z</time>
            </trkpt>
            <trkpt lon="101.208076" lat="14.320130">
                <ele>56.860000</ele>
                <time>2017-05-28T03:20:37Z</time>
            </trkpt>
            <trkpt lon="101.208342" lat="14.319905">
                <ele>55.410000</ele>
                <time>2017-05-28T03:20:51Z</time>
            </trkpt>
            <trkpt lon="101.208591" lat="14.319790">
                <ele>53.970000</ele>
                <time>2017-05-28T03:21:02Z</time>
            </trkpt>
            <trkpt lon="101.208695" lat="14.319732">
                <ele>54.450000</ele>
                <time>2017-05-28T03:21:15Z</time>
            </trkpt>
            <trkpt lon="101.208706" lat="14.319722">
                <ele>53.970000</ele>
                <time>2017-05-28T03:21:17Z</time>
            </trkpt>
            <trkpt lon="101.208757" lat="14.319675">
                <ele>53.970000</ele>
                <time>2017-05-28T03:21:27Z</time>
            </trkpt>
            <trkpt lon="101.208848" lat="14.319601">
                <ele>54.930000</ele>
                <time>2017-05-28T03:21:37Z</time>
            </trkpt>
            <trkpt lon="101.209086" lat="14.319468">
                <ele>55.410000</ele>
                <time>2017-05-28T03:21:51Z</time>
            </trkpt>
            <trkpt lon="101.209293" lat="14.319329">
                <ele>56.370000</ele>
                <time>2017-05-28T03:22:03Z</time>
            </trkpt>
            <trkpt lon="101.209469" lat="14.319191">
                <ele>58.300000</ele>
                <time>2017-05-28T03:22:17Z</time>
            </trkpt>
            <trkpt lon="101.209586" lat="14.319187">
                <ele>60.700000</ele>
                <time>2017-05-28T03:22:32Z</time>
            </trkpt>
            <trkpt lon="101.209594" lat="14.319187">
                <ele>61.180000</ele>
                <time>2017-05-28T03:22:33Z</time>
            </trkpt>
            <trkpt lon="101.209686" lat="14.319170">
                <ele>63.100000</ele>
                <time>2017-05-28T03:22:48Z</time>
            </trkpt>
            <trkpt lon="101.209841" lat="14.319186">
                <ele>62.620000</ele>
                <time>2017-05-28T03:23:01Z</time>
            </trkpt>
            <trkpt lon="101.209950" lat="14.319176">
                <ele>64.070000</ele>
                <time>2017-05-28T03:23:08Z</time>
            </trkpt>
            <trkpt lon="101.210041" lat="14.319163">
                <ele>65.510000</ele>
                <time>2017-05-28T03:23:19Z</time>
            </trkpt>
            <trkpt lon="101.210101" lat="14.319186">
                <ele>65.990000</ele>
                <time>2017-05-28T03:23:32Z</time>
            </trkpt>
            <trkpt lon="101.210105" lat="14.319181">
                <ele>66.470000</ele>
                <time>2017-05-28T03:23:36Z</time>
            </trkpt>
            <trkpt lon="101.210247" lat="14.319075">
                <ele>65.990000</ele>
                <time>2017-05-28T03:23:48Z</time>
            </trkpt>
            <trkpt lon="101.210466" lat="14.319062">
                <ele>67.430000</ele>
                <time>2017-05-28T03:24:02Z</time>
            </trkpt>
            <trkpt lon="101.210539" lat="14.319026">
                <ele>67.430000</ele>
                <time>2017-05-28T03:24:06Z</time>
            </trkpt>
            <trkpt lon="101.210753" lat="14.318893">
                <ele>63.580000</ele>
                <time>2017-05-28T03:24:15Z</time>
            </trkpt>
            <trkpt lon="101.210971" lat="14.318763">
                <ele>60.700000</ele>
                <time>2017-05-28T03:24:22Z</time>
            </trkpt>
            <trkpt lon="101.211093" lat="14.318694">
                <ele>58.300000</ele>
                <time>2017-05-28T03:24:27Z</time>
            </trkpt>
            <trkpt lon="101.211241" lat="14.318590">
                <ele>55.890000</ele>
                <time>2017-05-28T03:24:32Z</time>
            </trkpt>
            <trkpt lon="101.211253" lat="14.318552">
                <ele>55.410000</ele>
                <time>2017-05-28T03:24:33Z</time>
            </trkpt>
            <trkpt lon="101.211255" lat="14.318511">
                <ele>55.410000</ele>
                <time>2017-05-28T03:24:34Z</time>
            </trkpt>
            <trkpt lon="101.211310" lat="14.318205">
                <ele>55.410000</ele>
                <time>2017-05-28T03:24:44Z</time>
            </trkpt>
            <trkpt lon="101.211429" lat="14.317687">
                <ele>55.890000</ele>
                <time>2017-05-28T03:24:57Z</time>
            </trkpt>
            <trkpt lon="101.211427" lat="14.317642">
                <ele>56.370000</ele>
                <time>2017-05-28T03:24:58Z</time>
            </trkpt>
            <trkpt lon="101.211430" lat="14.317596">
                <ele>55.410000</ele>
                <time>2017-05-28T03:24:59Z</time>
            </trkpt>
            <trkpt lon="101.211454" lat="14.317212">
                <ele>54.930000</ele>
                <time>2017-05-28T03:25:07Z</time>
            </trkpt>
            <trkpt lon="101.211438" lat="14.317167">
                <ele>54.930000</ele>
                <time>2017-05-28T03:25:08Z</time>
            </trkpt>
            <trkpt lon="101.211417" lat="14.317124">
                <ele>55.410000</ele>
                <time>2017-05-28T03:25:09Z</time>
            </trkpt>
            <trkpt lon="101.211353" lat="14.316996">
                <ele>54.930000</ele>
                <time>2017-05-28T03:25:12Z</time>
            </trkpt>
            <trkpt lon="101.211330" lat="14.316907">
                <ele>54.450000</ele>
                <time>2017-05-28T03:25:14Z</time>
            </trkpt>
            <trkpt lon="101.211328" lat="14.316861">
                <ele>55.410000</ele>
                <time>2017-05-28T03:25:15Z</time>
            </trkpt>
            <trkpt lon="101.211369" lat="14.316681">
                <ele>55.410000</ele>
                <time>2017-05-28T03:25:22Z</time>
            </trkpt>
            <trkpt lon="101.211381" lat="14.316683">
                <ele>55.410000</ele>
                <time>2017-05-28T03:25:23Z</time>
            </trkpt>
            <trkpt lon="101.211394" lat="14.316690">
                <ele>54.930000</ele>
                <time>2017-05-28T03:25:24Z</time>
            </trkpt>
            <trkpt lon="101.211405" lat="14.316703">
                <ele>54.930000</ele>
                <time>2017-05-28T03:25:25Z</time>
            </trkpt>
            <trkpt lon="101.211416" lat="14.316719">
                <ele>54.930000</ele>
                <time>2017-05-28T03:25:26Z</time>
            </trkpt>
            <trkpt lon="101.211431" lat="14.316735">
                <ele>53.970000</ele>
                <time>2017-05-28T03:25:27Z</time>
            </trkpt>
            <trkpt lon="101.211469" lat="14.316781">
                <ele>53.490000</ele>
                <time>2017-05-28T03:25:30Z</time>
            </trkpt>
            <trkpt lon="101.211488" lat="14.316793">
                <ele>53.010000</ele>
                <time>2017-05-28T03:25:31Z</time>
            </trkpt>
            <trkpt lon="101.211606" lat="14.316802">
                <ele>51.090000</ele>
                <time>2017-05-28T03:25:41Z</time>
            </trkpt>
            <trkpt lon="101.211614" lat="14.316803">
                <ele>51.090000</ele>
                <time>2017-05-28T03:25:51Z</time>
            </trkpt>
            <trkpt lon="101.211657" lat="14.316766">
                <ele>50.610000</ele>
                <time>2017-05-28T03:26:05Z</time>
            </trkpt>
            <trkpt lon="101.211639" lat="14.316775">
                <ele>50.610000</ele>
                <time>2017-05-28T03:26:24Z</time>
            </trkpt>
            <trkpt lon="101.211613" lat="14.316763">
                <ele>51.090000</ele>
                <time>2017-05-28T03:26:34Z</time>
            </trkpt>
            <trkpt lon="101.211597" lat="14.316791">
                <ele>51.090000</ele>
                <time>2017-05-28T03:26:38Z</time>
            </trkpt>
            <trkpt lon="101.211584" lat="14.316811">
                <ele>51.090000</ele>
                <time>2017-05-28T03:26:40Z</time>
            </trkpt>
            <trkpt lon="101.211557" lat="14.316928">
                <ele>50.130000</ele>
                <time>2017-05-28T03:26:54Z</time>
            </trkpt>
            <trkpt lon="101.211564" lat="14.317032">
                <ele>49.160000</ele>
                <time>2017-05-28T03:27:08Z</time>
            </trkpt>
            <trkpt lon="101.211608" lat="14.317204">
                <ele>49.160000</ele>
                <time>2017-05-28T03:27:24Z</time>
            </trkpt>
            <trkpt lon="101.211640" lat="14.317319">
                <ele>49.160000</ele>
                <time>2017-05-28T03:27:36Z</time>
            </trkpt>
            <trkpt lon="101.211646" lat="14.317408">
                <ele>49.160000</ele>
                <time>2017-05-28T03:27:45Z</time>
            </trkpt>
            <trkpt lon="101.211627" lat="14.317460">
                <ele>49.160000</ele>
                <time>2017-05-28T03:27:51Z</time>
            </trkpt>
            <trkpt lon="101.211644" lat="14.317619">
                <ele>47.720000</ele>
                <time>2017-05-28T03:28:07Z</time>
            </trkpt>
            <trkpt lon="101.211644" lat="14.317626">
                <ele>48.200000</ele>
                <time>2017-05-28T03:28:08Z</time>
            </trkpt>
            <trkpt lon="101.211603" lat="14.317780">
                <ele>49.650000</ele>
                <time>2017-05-28T03:28:26Z</time>
            </trkpt>
            <trkpt lon="101.211612" lat="14.317875">
                <ele>48.680000</ele>
                <time>2017-05-28T03:28:40Z</time>
            </trkpt>
            <trkpt lon="101.211620" lat="14.317930">
                <ele>49.160000</ele>
                <time>2017-05-28T03:28:47Z</time>
            </trkpt>
            <trkpt lon="101.211608" lat="14.318058">
                <ele>49.650000</ele>
                <time>2017-05-28T03:29:02Z</time>
            </trkpt>
            <trkpt lon="101.211608" lat="14.318065">
                <ele>49.650000</ele>
                <time>2017-05-28T03:29:03Z</time>
            </trkpt>
            <trkpt lon="101.211647" lat="14.318208">
                <ele>47.720000</ele>
                <time>2017-05-28T03:29:17Z</time>
            </trkpt>
            <trkpt lon="101.211686" lat="14.318375">
                <ele>48.200000</ele>
                <time>2017-05-28T03:29:30Z</time>
            </trkpt>
            <trkpt lon="101.211683" lat="14.318381">
                <ele>48.200000</ele>
                <time>2017-05-28T03:29:33Z</time>
            </trkpt>
            <trkpt lon="101.211715" lat="14.318571">
                <ele>48.680000</ele>
                <time>2017-05-28T03:29:52Z</time>
            </trkpt>
            <trkpt lon="101.211716" lat="14.318606">
                <ele>47.720000</ele>
                <time>2017-05-28T03:29:56Z</time>
            </trkpt>
            <trkpt lon="101.211706" lat="14.318624">
                <ele>48.200000</ele>
                <time>2017-05-28T03:29:58Z</time>
            </trkpt>
            <trkpt lon="101.211742" lat="14.318710">
                <ele>47.720000</ele>
                <time>2017-05-28T03:30:09Z</time>
            </trkpt>
            <trkpt lon="101.211770" lat="14.318811">
                <ele>48.200000</ele>
                <time>2017-05-28T03:30:21Z</time>
            </trkpt>
            <trkpt lon="101.211781" lat="14.318862">
                <ele>48.200000</ele>
                <time>2017-05-28T03:30:33Z</time>
            </trkpt>
            <trkpt lon="101.211855" lat="14.319075">
                <ele>48.200000</ele>
                <time>2017-05-28T03:30:45Z</time>
            </trkpt>
            <trkpt lon="101.211877" lat="14.319187">
                <ele>47.720000</ele>
                <time>2017-05-28T03:30:50Z</time>
            </trkpt>
            <trkpt lon="101.211850" lat="14.319231">
                <ele>49.160000</ele>
                <time>2017-05-28T03:30:54Z</time>
            </trkpt>
            <trkpt lon="101.211854" lat="14.319323">
                <ele>50.130000</ele>
                <time>2017-05-28T03:31:01Z</time>
            </trkpt>
            <trkpt lon="101.211848" lat="14.319612">
                <ele>49.650000</ele>
                <time>2017-05-28T03:31:16Z</time>
            </trkpt>
            <trkpt lon="101.211846" lat="14.319901">
                <ele>49.160000</ele>
                <time>2017-05-28T03:31:28Z</time>
            </trkpt>
            <trkpt lon="101.211922" lat="14.320031">
                <ele>49.160000</ele>
                <time>2017-05-28T03:31:35Z</time>
            </trkpt>
            <trkpt lon="101.211948" lat="14.320154">
                <ele>48.680000</ele>
                <time>2017-05-28T03:31:41Z</time>
            </trkpt>
            <trkpt lon="101.212121" lat="14.320319">
                <ele>49.160000</ele>
                <time>2017-05-28T03:31:51Z</time>
            </trkpt>
            <trkpt lon="101.212074" lat="14.320560">
                <ele>50.610000</ele>
                <time>2017-05-28T03:32:04Z</time>
            </trkpt>
            <trkpt lon="101.212070" lat="14.320579">
                <ele>50.130000</ele>
                <time>2017-05-28T03:32:05Z</time>
            </trkpt>
            <trkpt lon="101.212002" lat="14.320897">
                <ele>50.130000</ele>
                <time>2017-05-28T03:32:18Z</time>
            </trkpt>
            <trkpt lon="101.211936" lat="14.320916">
                <ele>50.610000</ele>
                <time>2017-05-28T03:32:24Z</time>
            </trkpt>
            <trkpt lon="101.211871" lat="14.320999">
                <ele>51.090000</ele>
                <time>2017-05-28T03:32:32Z</time>
            </trkpt>
            <trkpt lon="101.211804" lat="14.320970">
                <ele>51.570000</ele>
                <time>2017-05-28T03:32:37Z</time>
            </trkpt>
            <trkpt lon="101.211696" lat="14.320862">
                <ele>52.530000</ele>
                <time>2017-05-28T03:32:46Z</time>
            </trkpt>
            <trkpt lon="101.211665" lat="14.320842">
                <ele>52.050000</ele>
                <time>2017-05-28T03:32:49Z</time>
            </trkpt>
            <trkpt lon="101.211627" lat="14.320836">
                <ele>53.010000</ele>
                <time>2017-05-28T03:32:52Z</time>
            </trkpt>
            <trkpt lon="101.211546" lat="14.321037">
                <ele>53.010000</ele>
                <time>2017-05-28T03:33:05Z</time>
            </trkpt>
            <trkpt lon="101.211686" lat="14.321502">
                <ele>53.010000</ele>
                <time>2017-05-28T03:33:21Z</time>
            </trkpt>
            <trkpt lon="101.211742" lat="14.321832">
                <ele>53.010000</ele>
                <time>2017-05-28T03:33:33Z</time>
            </trkpt>
            <trkpt lon="101.211739" lat="14.321865">
                <ele>52.530000</ele>
                <time>2017-05-28T03:33:41Z</time>
            </trkpt>
            <trkpt lon="101.211729" lat="14.321871">
                <ele>53.010000</ele>
                <time>2017-05-28T03:33:42Z</time>
            </trkpt>
            <trkpt lon="101.211678" lat="14.321905">
                <ele>53.970000</ele>
                <time>2017-05-28T03:33:51Z</time>
            </trkpt>
            <trkpt lon="101.211523" lat="14.321927">
                <ele>55.890000</ele>
                <time>2017-05-28T03:34:02Z</time>
            </trkpt>
            <trkpt lon="101.211401" lat="14.322009">
                <ele>56.860000</ele>
                <time>2017-05-28T03:34:13Z</time>
            </trkpt>
            <trkpt lon="101.211396" lat="14.322074">
                <ele>56.370000</ele>
                <time>2017-05-28T03:34:17Z</time>
            </trkpt>
            <trkpt lon="101.211370" lat="14.322348">
                <ele>57.820000</ele>
                <time>2017-05-28T03:34:32Z</time>
            </trkpt>
            <trkpt lon="101.211488" lat="14.322550">
                <ele>57.340000</ele>
                <time>2017-05-28T03:34:43Z</time>
            </trkpt>
            <trkpt lon="101.212045" lat="14.322538">
                <ele>55.410000</ele>
                <time>2017-05-28T03:34:59Z</time>
            </trkpt>
            <trkpt lon="101.212313" lat="14.322553">
                <ele>55.410000</ele>
                <time>2017-05-28T03:35:06Z</time>
            </trkpt>
            <trkpt lon="101.212917" lat="14.322579">
                <ele>53.970000</ele>
                <time>2017-05-28T03:35:21Z</time>
            </trkpt>
            <trkpt lon="101.213385" lat="14.322587">
                <ele>54.930000</ele>
                <time>2017-05-28T03:35:35Z</time>
            </trkpt>
            <trkpt lon="101.213607" lat="14.322585">
                <ele>55.890000</ele>
                <time>2017-05-28T03:35:42Z</time>
            </trkpt>
            <trkpt lon="101.213671" lat="14.322501">
                <ele>55.410000</ele>
                <time>2017-05-28T03:35:55Z</time>
            </trkpt>
            <trkpt lon="101.213729" lat="14.322485">
                <ele>55.890000</ele>
                <time>2017-05-28T03:36:08Z</time>
            </trkpt>
            <trkpt lon="101.213784" lat="14.322515">
                <ele>55.890000</ele>
                <time>2017-05-28T03:36:20Z</time>
            </trkpt>
            <trkpt lon="101.213761" lat="14.322521">
                <ele>55.890000</ele>
                <time>2017-05-28T03:36:32Z</time>
            </trkpt>
            <trkpt lon="101.213670" lat="14.322472">
                <ele>54.450000</ele>
                <time>2017-05-28T03:36:46Z</time>
            </trkpt>
            <trkpt lon="101.213649" lat="14.322341">
                <ele>54.450000</ele>
                <time>2017-05-28T03:36:54Z</time>
            </trkpt>
            <trkpt lon="101.213562" lat="14.322291">
                <ele>53.490000</ele>
                <time>2017-05-28T03:36:59Z</time>
            </trkpt>
            <trkpt lon="101.213209" lat="14.322241">
                <ele>53.490000</ele>
                <time>2017-05-28T03:37:11Z</time>
            </trkpt>
            <trkpt lon="101.213155" lat="14.321947">
                <ele>52.050000</ele>
                <time>2017-05-28T03:37:22Z</time>
            </trkpt>
            <trkpt lon="101.213136" lat="14.321932">
                <ele>52.050000</ele>
                <time>2017-05-28T03:37:23Z</time>
            </trkpt>
            <trkpt lon="101.213118" lat="14.321926">
                <ele>52.530000</ele>
                <time>2017-05-28T03:37:24Z</time>
            </trkpt>
            <trkpt lon="101.213100" lat="14.321927">
                <ele>52.050000</ele>
                <time>2017-05-28T03:37:25Z</time>
            </trkpt>
            <trkpt lon="101.213091" lat="14.321929">
                <ele>51.570000</ele>
                <time>2017-05-28T03:37:26Z</time>
            </trkpt>
            <trkpt lon="101.212823" lat="14.322011">
                <ele>53.010000</ele>
                <time>2017-05-28T03:37:39Z</time>
            </trkpt>
            <trkpt lon="101.212749" lat="14.322079">
                <ele>53.010000</ele>
                <time>2017-05-28T03:37:51Z</time>
            </trkpt>
            <trkpt lon="101.212720" lat="14.322127">
                <ele>53.010000</ele>
                <time>2017-05-28T03:38:04Z</time>
            </trkpt>
            <trkpt lon="101.212725" lat="14.322074">
                <ele>53.010000</ele>
                <time>2017-05-28T03:38:13Z</time>
            </trkpt>
            <trkpt lon="101.212735" lat="14.322064">
                <ele>53.010000</ele>
                <time>2017-05-28T03:38:14Z</time>
            </trkpt>
            <trkpt lon="101.212750" lat="14.322052">
                <ele>53.010000</ele>
                <time>2017-05-28T03:38:15Z</time>
            </trkpt>
            <trkpt lon="101.213033" lat="14.321909">
                <ele>52.050000</ele>
                <time>2017-05-28T03:38:26Z</time>
            </trkpt>
            <trkpt lon="101.213485" lat="14.321920">
                <ele>52.050000</ele>
                <time>2017-05-28T03:38:39Z</time>
            </trkpt>
            <trkpt lon="101.214061" lat="14.321831">
                <ele>52.050000</ele>
                <time>2017-05-28T03:38:55Z</time>
            </trkpt>
            <trkpt lon="101.214518" lat="14.321543">
                <ele>52.050000</ele>
                <time>2017-05-28T03:39:09Z</time>
            </trkpt>
            <trkpt lon="101.214884" lat="14.321344">
                <ele>52.050000</ele>
                <time>2017-05-28T03:39:22Z</time>
            </trkpt>
            <trkpt lon="101.214935" lat="14.321311">
                <ele>52.530000</ele>
                <time>2017-05-28T03:39:32Z</time>
            </trkpt>
            <trkpt lon="101.214952" lat="14.321281">
                <ele>52.530000</ele>
                <time>2017-05-28T03:39:44Z</time>
            </trkpt>
            <trkpt lon="101.214968" lat="14.321282">
                <ele>52.530000</ele>
                <time>2017-05-28T03:39:52Z</time>
            </trkpt>
            <trkpt lon="101.214982" lat="14.321286">
                <ele>52.530000</ele>
                <time>2017-05-28T03:40:03Z</time>
            </trkpt>
            <trkpt lon="101.214985" lat="14.321270">
                <ele>52.050000</ele>
                <time>2017-05-28T03:40:13Z</time>
            </trkpt>
            <trkpt lon="101.215129" lat="14.321207">
                <ele>53.010000</ele>
                <time>2017-05-28T03:40:24Z</time>
            </trkpt>
            <trkpt lon="101.215444" lat="14.320983">
                <ele>52.050000</ele>
                <time>2017-05-28T03:40:36Z</time>
            </trkpt>
            <trkpt lon="101.215867" lat="14.320890">
                <ele>51.090000</ele>
                <time>2017-05-28T03:40:49Z</time>
            </trkpt>
            <trkpt lon="101.216224" lat="14.320960">
                <ele>51.570000</ele>
                <time>2017-05-28T03:41:01Z</time>
            </trkpt>
            <trkpt lon="101.216641" lat="14.321042">
                <ele>51.570000</ele>
                <time>2017-05-28T03:41:15Z</time>
            </trkpt>
            <trkpt lon="101.216967" lat="14.320969">
                <ele>52.530000</ele>
                <time>2017-05-28T03:41:27Z</time>
            </trkpt>
            <trkpt lon="101.217403" lat="14.320986">
                <ele>50.610000</ele>
                <time>2017-05-28T03:41:39Z</time>
            </trkpt>
            <trkpt lon="101.217753" lat="14.321062">
                <ele>51.090000</ele>
                <time>2017-05-28T03:41:51Z</time>
            </trkpt>
            <trkpt lon="101.218076" lat="14.321128">
                <ele>52.050000</ele>
                <time>2017-05-28T03:42:02Z</time>
            </trkpt>
            <trkpt lon="101.218286" lat="14.321218">
                <ele>51.570000</ele>
                <time>2017-05-28T03:42:11Z</time>
            </trkpt>
            <trkpt lon="101.218294" lat="14.321238">
                <ele>51.570000</ele>
                <time>2017-05-28T03:42:12Z</time>
            </trkpt>
            <trkpt lon="101.218300" lat="14.321256">
                <ele>52.050000</ele>
                <time>2017-05-28T03:42:13Z</time>
            </trkpt>
            <trkpt lon="101.218305" lat="14.321275">
                <ele>52.530000</ele>
                <time>2017-05-28T03:42:14Z</time>
            </trkpt>
            <trkpt lon="101.218308" lat="14.321295">
                <ele>52.530000</ele>
                <time>2017-05-28T03:42:15Z</time>
            </trkpt>
            <trkpt lon="101.218450" lat="14.321545">
                <ele>52.530000</ele>
                <time>2017-05-28T03:42:28Z</time>
            </trkpt>
            <trkpt lon="101.218657" lat="14.321897">
                <ele>52.530000</ele>
                <time>2017-05-28T03:42:44Z</time>
            </trkpt>
            <trkpt lon="101.218851" lat="14.322333">
                <ele>53.490000</ele>
                <time>2017-05-28T03:43:00Z</time>
            </trkpt>
            <trkpt lon="101.219041" lat="14.322730">
                <ele>53.970000</ele>
                <time>2017-05-28T03:43:15Z</time>
            </trkpt>
            <trkpt lon="101.219194" lat="14.323021">
                <ele>53.490000</ele>
                <time>2017-05-28T03:43:28Z</time>
            </trkpt>
            <trkpt lon="101.219245" lat="14.323172">
                <ele>53.970000</ele>
                <time>2017-05-28T03:43:34Z</time>
            </trkpt>
            <trkpt lon="101.219254" lat="14.323193">
                <ele>53.490000</ele>
                <time>2017-05-28T03:43:35Z</time>
            </trkpt>
            <trkpt lon="101.219268" lat="14.323232">
                <ele>53.490000</ele>
                <time>2017-05-28T03:43:37Z</time>
            </trkpt>
            <trkpt lon="101.219270" lat="14.323337">
                <ele>53.970000</ele>
                <time>2017-05-28T03:43:47Z</time>
            </trkpt>
            <trkpt lon="101.219267" lat="14.323430">
                <ele>54.450000</ele>
                <time>2017-05-28T03:43:57Z</time>
            </trkpt>
            <trkpt lon="101.219383" lat="14.323555">
                <ele>54.450000</ele>
                <time>2017-05-28T03:44:11Z</time>
            </trkpt>
            <trkpt lon="101.219426" lat="14.323649">
                <ele>53.490000</ele>
                <time>2017-05-28T03:44:27Z</time>
            </trkpt>
            <trkpt lon="101.219455" lat="14.323688">
                <ele>52.050000</ele>
                <time>2017-05-28T03:44:41Z</time>
            </trkpt>
            <trkpt lon="101.219482" lat="14.323731">
                <ele>51.570000</ele>
                <time>2017-05-28T03:44:55Z</time>
            </trkpt>
            <trkpt lon="101.219490" lat="14.323782">
                <ele>52.050000</ele>
                <time>2017-05-28T03:45:01Z</time>
            </trkpt>
            <trkpt lon="101.219510" lat="14.323896">
                <ele>53.010000</ele>
                <time>2017-05-28T03:45:14Z</time>
            </trkpt>
            <trkpt lon="101.219592" lat="14.323982">
                <ele>54.450000</ele>
                <time>2017-05-28T03:45:29Z</time>
            </trkpt>
            <trkpt lon="101.219619" lat="14.323999">
                <ele>54.450000</ele>
                <time>2017-05-28T03:45:43Z</time>
            </trkpt>
            <trkpt lon="101.219641" lat="14.324038">
                <ele>54.450000</ele>
                <time>2017-05-28T03:45:49Z</time>
            </trkpt>
            <trkpt lon="101.219679" lat="14.324097">
                <ele>54.450000</ele>
                <time>2017-05-28T03:45:55Z</time>
            </trkpt>
            <trkpt lon="101.219691" lat="14.324110">
                <ele>54.450000</ele>
                <time>2017-05-28T03:45:56Z</time>
            </trkpt>
            <trkpt lon="101.219701" lat="14.324126">
                <ele>54.930000</ele>
                <time>2017-05-28T03:45:57Z</time>
            </trkpt>
            <trkpt lon="101.219707" lat="14.324143">
                <ele>54.930000</ele>
                <time>2017-05-28T03:45:58Z</time>
            </trkpt>
            <trkpt lon="101.219710" lat="14.324160">
                <ele>54.930000</ele>
                <time>2017-05-28T03:45:59Z</time>
            </trkpt>
            <trkpt lon="101.219716" lat="14.324177">
                <ele>54.930000</ele>
                <time>2017-05-28T03:46:00Z</time>
            </trkpt>
            <trkpt lon="101.219726" lat="14.324192">
                <ele>54.930000</ele>
                <time>2017-05-28T03:46:01Z</time>
            </trkpt>
            <trkpt lon="101.219736" lat="14.324206">
                <ele>55.410000</ele>
                <time>2017-05-28T03:46:02Z</time>
            </trkpt>
            <trkpt lon="101.219748" lat="14.324221">
                <ele>55.890000</ele>
                <time>2017-05-28T03:46:03Z</time>
            </trkpt>
            <trkpt lon="101.219762" lat="14.324240">
                <ele>54.450000</ele>
                <time>2017-05-28T03:46:04Z</time>
            </trkpt>
            <trkpt lon="101.219927" lat="14.324534">
                <ele>54.930000</ele>
                <time>2017-05-28T03:46:16Z</time>
            </trkpt>
            <trkpt lon="101.220038" lat="14.324893">
                <ele>55.890000</ele>
                <time>2017-05-28T03:46:30Z</time>
            </trkpt>
            <trkpt lon="101.220340" lat="14.325051">
                <ele>55.410000</ele>
                <time>2017-05-28T03:46:41Z</time>
            </trkpt>
            <trkpt lon="101.220575" lat="14.324993">
                <ele>56.370000</ele>
                <time>2017-05-28T03:46:52Z</time>
            </trkpt>
            <trkpt lon="101.220692" lat="14.324922">
                <ele>57.340000</ele>
                <time>2017-05-28T03:46:59Z</time>
            </trkpt>
            <trkpt lon="101.220705" lat="14.324878">
                <ele>57.340000</ele>
                <time>2017-05-28T03:47:01Z</time>
            </trkpt>
            <trkpt lon="101.220634" lat="14.324465">
                <ele>55.890000</ele>
                <time>2017-05-28T03:47:15Z</time>
            </trkpt>
            <trkpt lon="101.220618" lat="14.323905">
                <ele>55.410000</ele>
                <time>2017-05-28T03:47:29Z</time>
            </trkpt>
            <trkpt lon="101.220507" lat="14.323328">
                <ele>54.450000</ele>
                <time>2017-05-28T03:47:43Z</time>
            </trkpt>
            <trkpt lon="101.220480" lat="14.323150">
                <ele>53.490000</ele>
                <time>2017-05-28T03:47:47Z</time>
            </trkpt>
            <trkpt lon="101.220483" lat="14.323105">
                <ele>53.490000</ele>
                <time>2017-05-28T03:47:48Z</time>
            </trkpt>
            <trkpt lon="101.220491" lat="14.323064">
                <ele>53.490000</ele>
                <time>2017-05-28T03:47:49Z</time>
            </trkpt>
            <trkpt lon="101.220515" lat="14.322978">
                <ele>53.010000</ele>
                <time>2017-05-28T03:47:51Z</time>
            </trkpt>
            <trkpt lon="101.220561" lat="14.322757">
                <ele>53.010000</ele>
                <time>2017-05-28T03:47:56Z</time>
            </trkpt>
            <trkpt lon="101.220575" lat="14.322714">
                <ele>52.530000</ele>
                <time>2017-05-28T03:47:57Z</time>
            </trkpt>
            <trkpt lon="101.220584" lat="14.322668">
                <ele>53.010000</ele>
                <time>2017-05-28T03:47:58Z</time>
            </trkpt>
            <trkpt lon="101.220587" lat="14.322623">
                <ele>52.530000</ele>
                <time>2017-05-28T03:47:59Z</time>
            </trkpt>
            <trkpt lon="101.220585" lat="14.322576">
                <ele>52.530000</ele>
                <time>2017-05-28T03:48:00Z</time>
            </trkpt>
            <trkpt lon="101.220580" lat="14.322530">
                <ele>52.530000</ele>
                <time>2017-05-28T03:48:01Z</time>
            </trkpt>
            <trkpt lon="101.220574" lat="14.322485">
                <ele>52.530000</ele>
                <time>2017-05-28T03:48:02Z</time>
            </trkpt>
            <trkpt lon="101.220358" lat="14.321776">
                <ele>50.130000</ele>
                <time>2017-05-28T03:48:18Z</time>
            </trkpt>
            <trkpt lon="101.220280" lat="14.321573">
                <ele>49.650000</ele>
                <time>2017-05-28T03:48:23Z</time>
            </trkpt>
            <trkpt lon="101.220285" lat="14.321362">
                <ele>49.650000</ele>
                <time>2017-05-28T03:48:29Z</time>
            </trkpt>
            <trkpt lon="101.220315" lat="14.321343">
                <ele>50.130000</ele>
                <time>2017-05-28T03:48:30Z</time>
            </trkpt>
            <trkpt lon="101.220350" lat="14.321329">
                <ele>50.130000</ele>
                <time>2017-05-28T03:48:31Z</time>
            </trkpt>
            <trkpt lon="101.220828" lat="14.321115">
                <ele>49.650000</ele>
                <time>2017-05-28T03:48:44Z</time>
            </trkpt>
            <trkpt lon="101.220859" lat="14.321087">
                <ele>49.650000</ele>
                <time>2017-05-28T03:48:45Z</time>
            </trkpt>
            <trkpt lon="101.220889" lat="14.321054">
                <ele>49.160000</ele>
                <time>2017-05-28T03:48:46Z</time>
            </trkpt>
            <trkpt lon="101.220971" lat="14.320933">
                <ele>49.160000</ele>
                <time>2017-05-28T03:48:49Z</time>
            </trkpt>
            <trkpt lon="101.220991" lat="14.320887">
                <ele>49.160000</ele>
                <time>2017-05-28T03:48:50Z</time>
            </trkpt>
            <trkpt lon="101.221007" lat="14.320842">
                <ele>49.160000</ele>
                <time>2017-05-28T03:48:51Z</time>
            </trkpt>
            <trkpt lon="101.221018" lat="14.320799">
                <ele>49.650000</ele>
                <time>2017-05-28T03:48:52Z</time>
            </trkpt>
            <trkpt lon="101.221026" lat="14.320758">
                <ele>49.650000</ele>
                <time>2017-05-28T03:48:53Z</time>
            </trkpt>
            <trkpt lon="101.220995" lat="14.320345">
                <ele>51.090000</ele>
                <time>2017-05-28T03:49:05Z</time>
            </trkpt>
            <trkpt lon="101.221032" lat="14.319748">
                <ele>51.090000</ele>
                <time>2017-05-28T03:49:21Z</time>
            </trkpt>
            <trkpt lon="101.221077" lat="14.318946">
                <ele>50.130000</ele>
                <time>2017-05-28T03:49:40Z</time>
            </trkpt>
            <trkpt lon="101.221021" lat="14.318513">
                <ele>49.650000</ele>
                <time>2017-05-28T03:49:52Z</time>
            </trkpt>
            <trkpt lon="101.220940" lat="14.317981">
                <ele>50.130000</ele>
                <time>2017-05-28T03:50:06Z</time>
            </trkpt>
            <trkpt lon="101.220989" lat="14.317533">
                <ele>50.130000</ele>
                <time>2017-05-28T03:50:18Z</time>
            </trkpt>
            <trkpt lon="101.221141" lat="14.317126">
                <ele>50.610000</ele>
                <time>2017-05-28T03:50:29Z</time>
            </trkpt>
            <trkpt lon="101.221330" lat="14.316632">
                <ele>50.610000</ele>
                <time>2017-05-28T03:50:42Z</time>
            </trkpt>
            <trkpt lon="101.221297" lat="14.316012">
                <ele>50.130000</ele>
                <time>2017-05-28T03:50:57Z</time>
            </trkpt>
            <trkpt lon="101.221284" lat="14.315969">
                <ele>49.650000</ele>
                <time>2017-05-28T03:50:58Z</time>
            </trkpt>
            <trkpt lon="101.221019" lat="14.315428">
                <ele>50.130000</ele>
                <time>2017-05-28T03:51:13Z</time>
            </trkpt>
            <trkpt lon="101.220948" lat="14.315080">
                <ele>50.130000</ele>
                <time>2017-05-28T03:51:21Z</time>
            </trkpt>
            <trkpt lon="101.220956" lat="14.315035">
                <ele>50.130000</ele>
                <time>2017-05-28T03:51:22Z</time>
            </trkpt>
            <trkpt lon="101.221020" lat="14.314802">
                <ele>50.610000</ele>
                <time>2017-05-28T03:51:27Z</time>
            </trkpt>
            <trkpt lon="101.221276" lat="14.314351">
                <ele>50.610000</ele>
                <time>2017-05-28T03:51:40Z</time>
            </trkpt>
            <trkpt lon="101.221609" lat="14.313757">
                <ele>50.610000</ele>
                <time>2017-05-28T03:51:55Z</time>
            </trkpt>
            <trkpt lon="101.221679" lat="14.313695">
                <ele>50.610000</ele>
                <time>2017-05-28T03:51:57Z</time>
            </trkpt>
            <trkpt lon="101.222007" lat="14.313490">
                <ele>50.130000</ele>
                <time>2017-05-28T03:52:04Z</time>
            </trkpt>
            <trkpt lon="101.222035" lat="14.313456">
                <ele>51.090000</ele>
                <time>2017-05-28T03:52:05Z</time>
            </trkpt>
            <trkpt lon="101.222058" lat="14.313425">
                <ele>51.570000</ele>
                <time>2017-05-28T03:52:06Z</time>
            </trkpt>
            <trkpt lon="101.222081" lat="14.313398">
                <ele>51.570000</ele>
                <time>2017-05-28T03:52:07Z</time>
            </trkpt>
            <trkpt lon="101.222332" lat="14.312945">
                <ele>51.570000</ele>
                <time>2017-05-28T03:52:21Z</time>
            </trkpt>
            <trkpt lon="101.222510" lat="14.312430">
                <ele>52.050000</ele>
                <time>2017-05-28T03:52:36Z</time>
            </trkpt>
            <trkpt lon="101.222646" lat="14.311824">
                <ele>52.050000</ele>
                <time>2017-05-28T03:52:54Z</time>
            </trkpt>
            <trkpt lon="101.222768" lat="14.311223">
                <ele>51.090000</ele>
                <time>2017-05-28T03:53:09Z</time>
            </trkpt>
            <trkpt lon="101.222785" lat="14.311184">
                <ele>50.610000</ele>
                <time>2017-05-28T03:53:10Z</time>
            </trkpt>
            <trkpt lon="101.222805" lat="14.311148">
                <ele>50.610000</ele>
                <time>2017-05-28T03:53:11Z</time>
            </trkpt>
            <trkpt lon="101.222832" lat="14.311117">
                <ele>50.610000</ele>
                <time>2017-05-28T03:53:12Z</time>
            </trkpt>
            <trkpt lon="101.222861" lat="14.311088">
                <ele>51.090000</ele>
                <time>2017-05-28T03:53:13Z</time>
            </trkpt>
            <trkpt lon="101.223101" lat="14.310865">
                <ele>52.050000</ele>
                <time>2017-05-28T03:53:22Z</time>
            </trkpt>
            <trkpt lon="101.223113" lat="14.310597">
                <ele>51.090000</ele>
                <time>2017-05-28T03:53:28Z</time>
            </trkpt>
            <trkpt lon="101.223123" lat="14.310548">
                <ele>51.090000</ele>
                <time>2017-05-28T03:53:29Z</time>
            </trkpt>
            <trkpt lon="101.223137" lat="14.310501">
                <ele>50.610000</ele>
                <time>2017-05-28T03:53:30Z</time>
            </trkpt>
            <trkpt lon="101.223158" lat="14.310453">
                <ele>51.090000</ele>
                <time>2017-05-28T03:53:31Z</time>
            </trkpt>
            <trkpt lon="101.223184" lat="14.310408">
                <ele>50.610000</ele>
                <time>2017-05-28T03:53:32Z</time>
            </trkpt>
            <trkpt lon="101.223214" lat="14.310367">
                <ele>51.090000</ele>
                <time>2017-05-28T03:53:33Z</time>
            </trkpt>
            <trkpt lon="101.223250" lat="14.310330">
                <ele>50.130000</ele>
                <time>2017-05-28T03:53:34Z</time>
            </trkpt>
            <trkpt lon="101.223288" lat="14.310298">
                <ele>50.130000</ele>
                <time>2017-05-28T03:53:35Z</time>
            </trkpt>
            <trkpt lon="101.223476" lat="14.310135">
                <ele>50.130000</ele>
                <time>2017-05-28T03:53:40Z</time>
            </trkpt>
            <trkpt lon="101.223634" lat="14.309917">
                <ele>50.130000</ele>
                <time>2017-05-28T03:53:46Z</time>
            </trkpt>
            <trkpt lon="101.223651" lat="14.309873">
                <ele>50.130000</ele>
                <time>2017-05-28T03:53:47Z</time>
            </trkpt>
            <trkpt lon="101.223661" lat="14.309828">
                <ele>49.650000</ele>
                <time>2017-05-28T03:53:48Z</time>
            </trkpt>
            <trkpt lon="101.223671" lat="14.309783">
                <ele>49.650000</ele>
                <time>2017-05-28T03:53:49Z</time>
            </trkpt>
            <trkpt lon="101.223686" lat="14.309741">
                <ele>49.160000</ele>
                <time>2017-05-28T03:53:50Z</time>
            </trkpt>
            <trkpt lon="101.223704" lat="14.309700">
                <ele>49.160000</ele>
                <time>2017-05-28T03:53:51Z</time>
            </trkpt>
            <trkpt lon="101.223733" lat="14.309615">
                <ele>49.160000</ele>
                <time>2017-05-28T03:53:53Z</time>
            </trkpt>
            <trkpt lon="101.223739" lat="14.309569">
                <ele>48.680000</ele>
                <time>2017-05-28T03:53:54Z</time>
            </trkpt>
            <trkpt lon="101.223740" lat="14.309521">
                <ele>48.200000</ele>
                <time>2017-05-28T03:53:55Z</time>
            </trkpt>
            <trkpt lon="101.223733" lat="14.309475">
                <ele>47.720000</ele>
                <time>2017-05-28T03:53:56Z</time>
            </trkpt>
            <trkpt lon="101.223723" lat="14.309430">
                <ele>47.240000</ele>
                <time>2017-05-28T03:53:57Z</time>
            </trkpt>
            <trkpt lon="101.223704" lat="14.309388">
                <ele>46.760000</ele>
                <time>2017-05-28T03:53:58Z</time>
            </trkpt>
            <trkpt lon="101.223677" lat="14.309347">
                <ele>46.280000</ele>
                <time>2017-05-28T03:53:59Z</time>
            </trkpt>
            <trkpt lon="101.223642" lat="14.309307">
                <ele>45.320000</ele>
                <time>2017-05-28T03:54:00Z</time>
            </trkpt>
            <trkpt lon="101.223431" lat="14.309131">
                <ele>41.470000</ele>
                <time>2017-05-28T03:54:04Z</time>
            </trkpt>
            <trkpt lon="101.223362" lat="14.309101">
                <ele>39.550000</ele>
                <time>2017-05-28T03:54:05Z</time>
            </trkpt>
            <trkpt lon="101.223287" lat="14.309081">
                <ele>38.590000</ele>
                <time>2017-05-28T03:54:06Z</time>
            </trkpt>
            <trkpt lon="101.223216" lat="14.309070">
                <ele>38.590000</ele>
                <time>2017-05-28T03:54:07Z</time>
            </trkpt>
            <trkpt lon="101.223156" lat="14.309061">
                <ele>38.110000</ele>
                <time>2017-05-28T03:54:08Z</time>
            </trkpt>
            <trkpt lon="101.223107" lat="14.309052">
                <ele>37.630000</ele>
                <time>2017-05-28T03:54:09Z</time>
            </trkpt>
            <trkpt lon="101.223069" lat="14.309036">
                <ele>37.630000</ele>
                <time>2017-05-28T03:54:10Z</time>
            </trkpt>
            <trkpt lon="101.223041" lat="14.309008">
                <ele>37.150000</ele>
                <time>2017-05-28T03:54:11Z</time>
            </trkpt>
            <trkpt lon="101.223028" lat="14.308970">
                <ele>36.670000</ele>
                <time>2017-05-28T03:54:12Z</time>
            </trkpt>
            <trkpt lon="101.223027" lat="14.308925">
                <ele>36.190000</ele>
                <time>2017-05-28T03:54:13Z</time>
            </trkpt>
            <trkpt lon="101.223035" lat="14.308878">
                <ele>36.190000</ele>
                <time>2017-05-28T03:54:14Z</time>
            </trkpt>
            <trkpt lon="101.223051" lat="14.308828">
                <ele>35.710000</ele>
                <time>2017-05-28T03:54:15Z</time>
            </trkpt>
            <trkpt lon="101.223075" lat="14.308773">
                <ele>34.740000</ele>
                <time>2017-05-28T03:54:16Z</time>
            </trkpt>
            <trkpt lon="101.223154" lat="14.308585">
                <ele>33.780000</ele>
                <time>2017-05-28T03:54:19Z</time>
            </trkpt>
            <trkpt lon="101.223285" lat="14.308155">
                <ele>31.380000</ele>
                <time>2017-05-28T03:54:27Z</time>
            </trkpt>
            <trkpt lon="101.223315" lat="14.308105">
                <ele>31.380000</ele>
                <time>2017-05-28T03:54:30Z</time>
            </trkpt>
            <trkpt lon="101.223311" lat="14.308091">
                <ele>31.380000</ele>
                <time>2017-05-28T03:54:31Z</time>
            </trkpt>
            <trkpt lon="101.223302" lat="14.308083">
                <ele>31.380000</ele>
                <time>2017-05-28T03:54:32Z</time>
            </trkpt>
            <trkpt lon="101.223295" lat="14.308109">
                <ele>31.380000</ele>
                <time>2017-05-28T03:54:35Z</time>
            </trkpt>
            <trkpt lon="101.223294" lat="14.308138">
                <ele>31.860000</ele>
                <time>2017-05-28T03:54:47Z</time>
            </trkpt>
            <trkpt lon="101.223286" lat="14.308150">
                <ele>32.340000</ele>
                <time>2017-05-28T03:54:49Z</time>
            </trkpt>
            <trkpt lon="101.223271" lat="14.308229">
                <ele>32.340000</ele>
                <time>2017-05-28T03:54:56Z</time>
            </trkpt>
            <trkpt lon="101.223264" lat="14.308290">
                <ele>33.300000</ele>
                <time>2017-05-28T03:55:00Z</time>
            </trkpt>
            <trkpt lon="101.223173" lat="14.308261">
                <ele>31.380000</ele>
                <time>2017-05-28T03:55:05Z</time>
            </trkpt>
            <trkpt lon="101.223160" lat="14.308231">
                <ele>31.380000</ele>
                <time>2017-05-28T03:55:06Z</time>
            </trkpt>
            <trkpt lon="101.223013" lat="14.308061">
                <ele>30.420000</ele>
                <time>2017-05-28T03:55:13Z</time>
            </trkpt>
            <trkpt lon="101.222979" lat="14.308008">
                <ele>30.420000</ele>
                <time>2017-05-28T03:55:16Z</time>
            </trkpt>
            <trkpt lon="101.222975" lat="14.307987">
                <ele>30.420000</ele>
                <time>2017-05-28T03:55:17Z</time>
            </trkpt>
            <trkpt lon="101.222977" lat="14.307965">
                <ele>29.940000</ele>
                <time>2017-05-28T03:55:18Z</time>
            </trkpt>
            <trkpt lon="101.222983" lat="14.307937">
                <ele>29.940000</ele>
                <time>2017-05-28T03:55:19Z</time>
            </trkpt>
            <trkpt lon="101.223255" lat="14.307359">
                <ele>28.980000</ele>
                <time>2017-05-28T03:55:32Z</time>
            </trkpt>
            <trkpt lon="101.223717" lat="14.306669">
                <ele>27.530000</ele>
                <time>2017-05-28T03:55:48Z</time>
            </trkpt>
            <trkpt lon="101.223751" lat="14.306634">
                <ele>27.530000</ele>
                <time>2017-05-28T03:55:49Z</time>
            </trkpt>
            <trkpt lon="101.224287" lat="14.306193">
                <ele>27.530000</ele>
                <time>2017-05-28T03:56:04Z</time>
            </trkpt>
            <trkpt lon="101.224319" lat="14.306202">
                <ele>27.530000</ele>
                <time>2017-05-28T03:56:05Z</time>
            </trkpt>
            <trkpt lon="101.224349" lat="14.306211">
                <ele>28.020000</ele>
                <time>2017-05-28T03:56:06Z</time>
            </trkpt>
            <trkpt lon="101.224381" lat="14.306209">
                <ele>28.020000</ele>
                <time>2017-05-28T03:56:07Z</time>
            </trkpt>
            <trkpt lon="101.224414" lat="14.306198">
                <ele>27.530000</ele>
                <time>2017-05-28T03:56:08Z</time>
            </trkpt>
            <trkpt lon="101.224446" lat="14.306183">
                <ele>28.020000</ele>
                <time>2017-05-28T03:56:09Z</time>
            </trkpt>
            <trkpt lon="101.224477" lat="14.306165">
                <ele>28.020000</ele>
                <time>2017-05-28T03:56:10Z</time>
            </trkpt>
            <trkpt lon="101.224505" lat="14.306141">
                <ele>28.020000</ele>
                <time>2017-05-28T03:56:11Z</time>
            </trkpt>
            <trkpt lon="101.224535" lat="14.306113">
                <ele>27.530000</ele>
                <time>2017-05-28T03:56:12Z</time>
            </trkpt>
            <trkpt lon="101.225092" lat="14.305553">
                <ele>27.530000</ele>
                <time>2017-05-28T03:56:30Z</time>
            </trkpt>
            <trkpt lon="101.225682" lat="14.304923">
                <ele>28.980000</ele>
                <time>2017-05-28T03:56:51Z</time>
            </trkpt>
            <trkpt lon="101.226017" lat="14.304598">
                <ele>28.980000</ele>
                <time>2017-05-28T03:57:03Z</time>
            </trkpt>
            <trkpt lon="101.226049" lat="14.304594">
                <ele>28.980000</ele>
                <time>2017-05-28T03:57:04Z</time>
            </trkpt>
            <trkpt lon="101.226076" lat="14.304602">
                <ele>28.500000</ele>
                <time>2017-05-28T03:57:05Z</time>
            </trkpt>
            <trkpt lon="101.226131" lat="14.304654">
                <ele>28.980000</ele>
                <time>2017-05-28T03:57:08Z</time>
            </trkpt>
            <trkpt lon="101.226495" lat="14.304922">
                <ele>29.940000</ele>
                <time>2017-05-28T03:57:28Z</time>
            </trkpt>
            <trkpt lon="101.226765" lat="14.305109">
                <ele>31.380000</ele>
                <time>2017-05-28T03:57:43Z</time>
            </trkpt>
            <trkpt lon="101.226989" lat="14.305325">
                <ele>31.860000</ele>
                <time>2017-05-28T03:57:59Z</time>
            </trkpt>
            <trkpt lon="101.227300" lat="14.305524">
                <ele>32.820000</ele>
                <time>2017-05-28T03:58:17Z</time>
            </trkpt>
            <trkpt lon="101.227654" lat="14.305727">
                <ele>33.300000</ele>
                <time>2017-05-28T03:58:35Z</time>
            </trkpt>
            <trkpt lon="101.227758" lat="14.305735">
                <ele>33.780000</ele>
                <time>2017-05-28T03:58:40Z</time>
            </trkpt>
            <trkpt lon="101.227837" lat="14.305689">
                <ele>33.780000</ele>
                <time>2017-05-28T03:58:44Z</time>
            </trkpt>
            <trkpt lon="101.228148" lat="14.305444">
                <ele>32.820000</ele>
                <time>2017-05-28T03:59:00Z</time>
            </trkpt>
            <trkpt lon="101.228439" lat="14.305189">
                <ele>32.820000</ele>
                <time>2017-05-28T03:59:13Z</time>
            </trkpt>
            <trkpt lon="101.228943" lat="14.304834">
                <ele>32.340000</ele>
                <time>2017-05-28T03:59:29Z</time>
            </trkpt>
            <trkpt lon="101.229466" lat="14.304432">
                <ele>31.860000</ele>
                <time>2017-05-28T03:59:47Z</time>
            </trkpt>
            <trkpt lon="101.229447" lat="14.304313">
                <ele>31.380000</ele>
                <time>2017-05-28T03:59:52Z</time>
            </trkpt>
            <trkpt lon="101.228987" lat="14.303955">
                <ele>29.460000</ele>
                <time>2017-05-28T04:00:07Z</time>
            </trkpt>
            <trkpt lon="101.228697" lat="14.303823">
                <ele>28.980000</ele>
                <time>2017-05-28T04:00:17Z</time>
            </trkpt>
            <trkpt lon="101.228434" lat="14.303685">
                <ele>28.020000</ele>
                <time>2017-05-28T04:00:28Z</time>
            </trkpt>
            <trkpt lon="101.228448" lat="14.303369">
                <ele>28.500000</ele>
                <time>2017-05-28T04:00:40Z</time>
            </trkpt>
            <trkpt lon="101.228630" lat="14.303109">
                <ele>28.500000</ele>
                <time>2017-05-28T04:00:51Z</time>
            </trkpt>
            <trkpt lon="101.228547" lat="14.302978">
                <ele>28.020000</ele>
                <time>2017-05-28T04:00:56Z</time>
            </trkpt>
            <trkpt lon="101.227917" lat="14.302523">
                <ele>28.020000</ele>
                <time>2017-05-28T04:01:15Z</time>
            </trkpt>
            <trkpt lon="101.227645" lat="14.302309">
                <ele>28.020000</ele>
                <time>2017-05-28T04:01:26Z</time>
            </trkpt>
            <trkpt lon="101.227667" lat="14.302192">
                <ele>28.020000</ele>
                <time>2017-05-28T04:01:33Z</time>
            </trkpt>
            <trkpt lon="101.227647" lat="14.302171">
                <ele>28.020000</ele>
                <time>2017-05-28T04:01:34Z</time>
            </trkpt>
            <trkpt lon="101.227619" lat="14.302156">
                <ele>27.530000</ele>
                <time>2017-05-28T04:01:35Z</time>
            </trkpt>
            <trkpt lon="101.227006" lat="14.301954">
                <ele>26.570000</ele>
                <time>2017-05-28T04:01:50Z</time>
            </trkpt>
            <trkpt lon="101.226279" lat="14.301741">
                <ele>25.130000</ele>
                <time>2017-05-28T04:02:05Z</time>
            </trkpt>
            <trkpt lon="101.225445" lat="14.301456">
                <ele>24.170000</ele>
                <time>2017-05-28T04:02:22Z</time>
            </trkpt>
            <trkpt lon="101.225409" lat="14.301461">
                <ele>24.170000</ele>
                <time>2017-05-28T04:02:23Z</time>
            </trkpt>
            <trkpt lon="101.225335" lat="14.301547">
                <ele>23.210000</ele>
                <time>2017-05-28T04:02:26Z</time>
            </trkpt>
            <trkpt lon="101.224933" lat="14.302258">
                <ele>24.170000</ele>
                <time>2017-05-28T04:02:46Z</time>
            </trkpt>
            <trkpt lon="101.224527" lat="14.302956">
                <ele>23.210000</ele>
                <time>2017-05-28T04:03:05Z</time>
            </trkpt>
            <trkpt lon="101.224035" lat="14.303746">
                <ele>23.690000</ele>
                <time>2017-05-28T04:03:28Z</time>
            </trkpt>
            <trkpt lon="101.223585" lat="14.303814">
                <ele>22.730000</ele>
                <time>2017-05-28T04:03:40Z</time>
            </trkpt>
            <trkpt lon="101.222805" lat="14.303624">
                <ele>23.690000</ele>
                <time>2017-05-28T04:04:02Z</time>
            </trkpt>
            <trkpt lon="101.222227" lat="14.303478">
                <ele>24.650000</ele>
                <time>2017-05-28T04:04:20Z</time>
            </trkpt>
            <trkpt lon="101.221762" lat="14.303295">
                <ele>23.690000</ele>
                <time>2017-05-28T04:04:34Z</time>
            </trkpt>
            <trkpt lon="101.221721" lat="14.303281">
                <ele>24.170000</ele>
                <time>2017-05-28T04:04:38Z</time>
            </trkpt>
            <trkpt lon="101.221560" lat="14.303473">
                <ele>23.690000</ele>
                <time>2017-05-28T04:04:48Z</time>
            </trkpt>
            <trkpt lon="101.221438" lat="14.303991">
                <ele>24.170000</ele>
                <time>2017-05-28T04:05:04Z</time>
            </trkpt>
            <trkpt lon="101.221446" lat="14.304402">
                <ele>25.130000</ele>
                <time>2017-05-28T04:05:19Z</time>
            </trkpt>
            <trkpt lon="101.221361" lat="14.304608">
                <ele>25.130000</ele>
                <time>2017-05-28T04:05:27Z</time>
            </trkpt>
            <trkpt lon="101.221339" lat="14.304610">
                <ele>25.130000</ele>
                <time>2017-05-28T04:05:28Z</time>
            </trkpt>
            <trkpt lon="101.221315" lat="14.304602">
                <ele>25.610000</ele>
                <time>2017-05-28T04:05:29Z</time>
            </trkpt>
            <trkpt lon="101.220823" lat="14.304381">
                <ele>25.130000</ele>
                <time>2017-05-28T04:05:45Z</time>
            </trkpt>
            <trkpt lon="101.220306" lat="14.304240">
                <ele>25.610000</ele>
                <time>2017-05-28T04:06:01Z</time>
            </trkpt>
            <trkpt lon="101.220295" lat="14.304263">
                <ele>25.610000</ele>
                <time>2017-05-28T04:06:02Z</time>
            </trkpt>
            <trkpt lon="101.220163" lat="14.304663">
                <ele>26.090000</ele>
                <time>2017-05-28T04:06:17Z</time>
            </trkpt>
            <trkpt lon="101.220091" lat="14.304669">
                <ele>26.090000</ele>
                <time>2017-05-28T04:06:27Z</time>
            </trkpt>
            <trkpt lon="101.220077" lat="14.304658">
                <ele>26.570000</ele>
                <time>2017-05-28T04:06:31Z</time>
            </trkpt>
            <trkpt lon="101.220069" lat="14.304649">
                <ele>26.570000</ele>
                <time>2017-05-28T04:06:32Z</time>
            </trkpt>
            <trkpt lon="101.220062" lat="14.304637">
                <ele>26.570000</ele>
                <time>2017-05-28T04:06:33Z</time>
            </trkpt>
            <trkpt lon="101.219794" lat="14.304365">
                <ele>26.090000</ele>
                <time>2017-05-28T04:06:46Z</time>
            </trkpt>
            <trkpt lon="101.219356" lat="14.304166">
                <ele>25.610000</ele>
                <time>2017-05-28T04:06:58Z</time>
            </trkpt>
            <trkpt lon="101.219396" lat="14.304167">
                <ele>25.610000</ele>
                <time>2017-05-28T04:07:06Z</time>
            </trkpt>
            <trkpt lon="101.219412" lat="14.304141">
                <ele>25.610000</ele>
                <time>2017-05-28T04:07:16Z</time>
            </trkpt>
            <trkpt lon="101.219416" lat="14.304127">
                <ele>26.090000</ele>
                <time>2017-05-28T04:07:17Z</time>
            </trkpt>
            <trkpt lon="101.219417" lat="14.304110">
                <ele>26.090000</ele>
                <time>2017-05-28T04:07:18Z</time>
            </trkpt>
            <trkpt lon="101.219417" lat="14.304090">
                <ele>26.090000</ele>
                <time>2017-05-28T04:07:19Z</time>
            </trkpt>
            <trkpt lon="101.219419" lat="14.304070">
                <ele>26.090000</ele>
                <time>2017-05-28T04:07:20Z</time>
            </trkpt>
            <trkpt lon="101.219419" lat="14.304050">
                <ele>25.610000</ele>
                <time>2017-05-28T04:07:21Z</time>
            </trkpt>
            <trkpt lon="101.219421" lat="14.304027">
                <ele>25.610000</ele>
                <time>2017-05-28T04:07:22Z</time>
            </trkpt>
            <trkpt lon="101.219362" lat="14.303625">
                <ele>25.610000</ele>
                <time>2017-05-28T04:07:35Z</time>
            </trkpt>
            <trkpt lon="101.219229" lat="14.303211">
                <ele>24.170000</ele>
                <time>2017-05-28T04:07:46Z</time>
            </trkpt>
            <trkpt lon="101.219219" lat="14.302788">
                <ele>23.690000</ele>
                <time>2017-05-28T04:07:57Z</time>
            </trkpt>
            <trkpt lon="101.219246" lat="14.302611">
                <ele>24.170000</ele>
                <time>2017-05-28T04:08:01Z</time>
            </trkpt>
            <trkpt lon="101.219157" lat="14.302316">
                <ele>24.170000</ele>
                <time>2017-05-28T04:08:09Z</time>
            </trkpt>
            <trkpt lon="101.219180" lat="14.302301">
                <ele>24.170000</ele>
                <time>2017-05-28T04:08:14Z</time>
            </trkpt>
            <trkpt lon="101.219377" lat="14.302049">
                <ele>23.690000</ele>
                <time>2017-05-28T04:08:26Z</time>
            </trkpt>
            <trkpt lon="101.219536" lat="14.301971">
                <ele>24.170000</ele>
                <time>2017-05-28T04:08:31Z</time>
            </trkpt>
            <trkpt lon="101.220176" lat="14.301822">
                <ele>24.170000</ele>
                <time>2017-05-28T04:08:47Z</time>
            </trkpt>
            <trkpt lon="101.220308" lat="14.301885">
                <ele>23.690000</ele>
                <time>2017-05-28T04:08:51Z</time>
            </trkpt>
            <trkpt lon="101.220876" lat="14.301639">
                <ele>23.210000</ele>
                <time>2017-05-28T04:09:06Z</time>
            </trkpt>
            <trkpt lon="101.221530" lat="14.301290">
                <ele>23.690000</ele>
                <time>2017-05-28T04:09:23Z</time>
            </trkpt>
            <trkpt lon="101.221527" lat="14.301158">
                <ele>22.730000</ele>
                <time>2017-05-28T04:09:28Z</time>
            </trkpt>
            <trkpt lon="101.221123" lat="14.300666">
                <ele>22.250000</ele>
                <time>2017-05-28T04:09:43Z</time>
            </trkpt>
            <trkpt lon="101.220638" lat="14.300048">
                <ele>22.730000</ele>
                <time>2017-05-28T04:10:01Z</time>
            </trkpt>
            <trkpt lon="101.220281" lat="14.300023">
                <ele>22.730000</ele>
                <time>2017-05-28T04:10:11Z</time>
            </trkpt>
            <trkpt lon="101.220235" lat="14.300021">
                <ele>23.210000</ele>
                <time>2017-05-28T04:10:12Z</time>
            </trkpt>
            <trkpt lon="101.220190" lat="14.300012">
                <ele>22.730000</ele>
                <time>2017-05-28T04:10:13Z</time>
            </trkpt>
            <trkpt lon="101.220144" lat="14.299999">
                <ele>23.210000</ele>
                <time>2017-05-28T04:10:14Z</time>
            </trkpt>
            <trkpt lon="101.219256" lat="14.299599">
                <ele>22.250000</ele>
                <time>2017-05-28T04:10:34Z</time>
            </trkpt>
            <trkpt lon="101.218928" lat="14.299437">
                <ele>22.250000</ele>
                <time>2017-05-28T04:10:41Z</time>
            </trkpt>
            <trkpt lon="101.218881" lat="14.299427">
                <ele>22.250000</ele>
                <time>2017-05-28T04:10:42Z</time>
            </trkpt>
            <trkpt lon="101.218833" lat="14.299434">
                <ele>22.250000</ele>
                <time>2017-05-28T04:10:43Z</time>
            </trkpt>
            <trkpt lon="101.218790" lat="14.299457">
                <ele>22.250000</ele>
                <time>2017-05-28T04:10:44Z</time>
            </trkpt>
            <trkpt lon="101.218751" lat="14.299487">
                <ele>22.250000</ele>
                <time>2017-05-28T04:10:45Z</time>
            </trkpt>
            <trkpt lon="101.218713" lat="14.299517">
                <ele>22.250000</ele>
                <time>2017-05-28T04:10:46Z</time>
            </trkpt>
            <trkpt lon="101.218670" lat="14.299536">
                <ele>22.730000</ele>
                <time>2017-05-28T04:10:47Z</time>
            </trkpt>
            <trkpt lon="101.218624" lat="14.299539">
                <ele>22.730000</ele>
                <time>2017-05-28T04:10:48Z</time>
            </trkpt>
            <trkpt lon="101.218578" lat="14.299530">
                <ele>22.730000</ele>
                <time>2017-05-28T04:10:49Z</time>
            </trkpt>
            <trkpt lon="101.218530" lat="14.299517">
                <ele>23.210000</ele>
                <time>2017-05-28T04:10:50Z</time>
            </trkpt>
            <trkpt lon="101.217514" lat="14.299212">
                <ele>22.250000</ele>
                <time>2017-05-28T04:11:11Z</time>
            </trkpt>
            <trkpt lon="101.217175" lat="14.299099">
                <ele>22.250000</ele>
                <time>2017-05-28T04:11:18Z</time>
            </trkpt>
            <trkpt lon="101.217136" lat="14.299073">
                <ele>22.250000</ele>
                <time>2017-05-28T04:11:19Z</time>
            </trkpt>
            <trkpt lon="101.217112" lat="14.299039">
                <ele>22.250000</ele>
                <time>2017-05-28T04:11:20Z</time>
            </trkpt>
            <trkpt lon="101.216946" lat="14.298632">
                <ele>23.690000</ele>
                <time>2017-05-28T04:11:33Z</time>
            </trkpt>
            <trkpt lon="101.216609" lat="14.298590">
                <ele>22.730000</ele>
                <time>2017-05-28T04:11:44Z</time>
            </trkpt>
            <trkpt lon="101.216319" lat="14.298608">
                <ele>23.210000</ele>
                <time>2017-05-28T04:11:51Z</time>
            </trkpt>
            <trkpt lon="101.216279" lat="14.298623">
                <ele>23.690000</ele>
                <time>2017-05-28T04:11:52Z</time>
            </trkpt>
            <trkpt lon="101.216242" lat="14.298643">
                <ele>23.690000</ele>
                <time>2017-05-28T04:11:53Z</time>
            </trkpt>
            <trkpt lon="101.216209" lat="14.298669">
                <ele>23.690000</ele>
                <time>2017-05-28T04:11:54Z</time>
            </trkpt>
            <trkpt lon="101.216182" lat="14.298699">
                <ele>23.690000</ele>
                <time>2017-05-28T04:11:55Z</time>
            </trkpt>
            <trkpt lon="101.216163" lat="14.298735">
                <ele>23.690000</ele>
                <time>2017-05-28T04:11:56Z</time>
            </trkpt>
            <trkpt lon="101.216151" lat="14.298773">
                <ele>23.690000</ele>
                <time>2017-05-28T04:11:57Z</time>
            </trkpt>
            <trkpt lon="101.216142" lat="14.298811">
                <ele>23.690000</ele>
                <time>2017-05-28T04:11:58Z</time>
            </trkpt>
            <trkpt lon="101.216129" lat="14.298844">
                <ele>23.690000</ele>
                <time>2017-05-28T04:11:59Z</time>
            </trkpt>
            <trkpt lon="101.216101" lat="14.298866">
                <ele>23.690000</ele>
                <time>2017-05-28T04:12:00Z</time>
            </trkpt>
            <trkpt lon="101.216063" lat="14.298871">
                <ele>23.690000</ele>
                <time>2017-05-28T04:12:01Z</time>
            </trkpt>
            <trkpt lon="101.216022" lat="14.298868">
                <ele>23.690000</ele>
                <time>2017-05-28T04:12:02Z</time>
            </trkpt>
            <trkpt lon="101.215979" lat="14.298861">
                <ele>23.690000</ele>
                <time>2017-05-28T04:12:03Z</time>
            </trkpt>
            <trkpt lon="101.215759" lat="14.298819">
                <ele>23.690000</ele>
                <time>2017-05-28T04:12:13Z</time>
            </trkpt>
            <trkpt lon="101.215747" lat="14.298801">
                <ele>24.170000</ele>
                <time>2017-05-28T04:12:26Z</time>
            </trkpt>
            <trkpt lon="101.215800" lat="14.298773">
                <ele>24.170000</ele>
                <time>2017-05-28T04:12:39Z</time>
            </trkpt>
            <trkpt lon="101.215805" lat="14.298753">
                <ele>23.690000</ele>
                <time>2017-05-28T04:12:55Z</time>
            </trkpt>
            <trkpt lon="101.215813" lat="14.298743">
                <ele>23.690000</ele>
                <time>2017-05-28T04:13:18Z</time>
            </trkpt>
            <trkpt lon="101.215828" lat="14.298750">
                <ele>23.690000</ele>
                <time>2017-05-28T04:13:40Z</time>
            </trkpt>
            <trkpt lon="101.215774" lat="14.298726">
                <ele>23.690000</ele>
                <time>2017-05-28T04:13:57Z</time>
            </trkpt>
            <trkpt lon="101.215803" lat="14.298727">
                <ele>23.690000</ele>
                <time>2017-05-28T04:14:20Z</time>
            </trkpt>
            <trkpt lon="101.215785" lat="14.298805">
                <ele>23.210000</ele>
                <time>2017-05-28T04:14:31Z</time>
            </trkpt>
            <trkpt lon="101.215776" lat="14.298782">
                <ele>21.290000</ele>
                <time>2017-05-28T04:14:45Z</time>
            </trkpt>
            <trkpt lon="101.215776" lat="14.298780">
                <ele>26.570000</ele>
                <time>2017-05-28T04:14:46Z</time>
            </trkpt>
            <trkpt lon="101.215777" lat="14.298778">
                <ele>23.210000</ele>
                <time>2017-05-28T04:14:47Z</time>
            </trkpt>
            <trkpt lon="101.215832" lat="14.298781">
                <ele>23.690000</ele>
                <time>2017-05-28T04:15:15Z</time>
            </trkpt>
            <trkpt lon="101.215825" lat="14.298775">
                <ele>23.690000</ele>
                <time>2017-05-28T04:15:45Z</time>
            </trkpt>
            <trkpt lon="101.215787" lat="14.298754">
                <ele>23.690000</ele>
                <time>2017-05-28T04:16:16Z</time>
            </trkpt>
            <trkpt lon="101.215781" lat="14.298775">
                <ele>23.210000</ele>
                <time>2017-05-28T04:16:50Z</time>
            </trkpt>
            <trkpt lon="101.215772" lat="14.298773">
                <ele>23.210000</ele>
                <time>2017-05-28T04:17:22Z</time>
            </trkpt>
            <trkpt lon="101.215711" lat="14.298765">
                <ele>23.210000</ele>
                <time>2017-05-28T04:17:52Z</time>
            </trkpt>
            <trkpt lon="101.215730" lat="14.298781">
                <ele>23.690000</ele>
                <time>2017-05-28T04:18:21Z</time>
            </trkpt>
            <trkpt lon="101.215754" lat="14.298758">
                <ele>23.690000</ele>
                <time>2017-05-28T04:18:53Z</time>
            </trkpt>
            <trkpt lon="101.215747" lat="14.298760">
                <ele>24.170000</ele>
                <time>2017-05-28T04:19:17Z</time>
            </trkpt>
            <trkpt lon="101.215777" lat="14.298769">
                <ele>23.690000</ele>
                <time>2017-05-28T04:19:41Z</time>
            </trkpt>
            <trkpt lon="101.215789" lat="14.298746">
                <ele>23.690000</ele>
                <time>2017-05-28T04:20:12Z</time>
            </trkpt>
            <trkpt lon="101.215789" lat="14.298763">
                <ele>24.170000</ele>
                <time>2017-05-28T04:20:42Z</time>
            </trkpt>
            <trkpt lon="101.215794" lat="14.298779">
                <ele>24.170000</ele>
                <time>2017-05-28T04:21:11Z</time>
            </trkpt>
            <trkpt lon="101.215783" lat="14.298764">
                <ele>24.170000</ele>
                <time>2017-05-28T04:21:41Z</time>
            </trkpt>
            <trkpt lon="101.215771" lat="14.298782">
                <ele>24.170000</ele>
                <time>2017-05-28T04:22:12Z</time>
            </trkpt>
            <trkpt lon="101.215765" lat="14.298785">
                <ele>24.170000</ele>
                <time>2017-05-28T04:22:47Z</time>
            </trkpt>
            <trkpt lon="101.215735" lat="14.298771">
                <ele>24.650000</ele>
                <time>2017-05-28T04:23:31Z</time>
            </trkpt>
            <trkpt lon="101.215735" lat="14.298775">
                <ele>24.170000</ele>
                <time>2017-05-28T04:24:02Z</time>
            </trkpt>
            <trkpt lon="101.215763" lat="14.298767">
                <ele>24.170000</ele>
                <time>2017-05-28T04:24:35Z</time>
            </trkpt>
            <trkpt lon="101.215729" lat="14.298818">
                <ele>23.690000</ele>
                <time>2017-05-28T04:25:01Z</time>
            </trkpt>
            <trkpt lon="101.215738" lat="14.298850">
                <ele>24.650000</ele>
                <time>2017-05-28T04:25:28Z</time>
            </trkpt>
            <trkpt lon="101.215747" lat="14.298835">
                <ele>24.650000</ele>
                <time>2017-05-28T04:25:53Z</time>
            </trkpt>
            <trkpt lon="101.215763" lat="14.298778">
                <ele>24.650000</ele>
                <time>2017-05-28T04:26:14Z</time>
            </trkpt>
            <trkpt lon="101.215799" lat="14.298764">
                <ele>24.650000</ele>
                <time>2017-05-28T04:26:44Z</time>
            </trkpt>
            <trkpt lon="101.215768" lat="14.298754">
                <ele>25.130000</ele>
                <time>2017-05-28T04:27:05Z</time>
            </trkpt>
            <trkpt lon="101.215766" lat="14.298796">
                <ele>25.130000</ele>
                <time>2017-05-28T04:27:24Z</time>
            </trkpt>
            <trkpt lon="101.215764" lat="14.298806">
                <ele>24.650000</ele>
                <time>2017-05-28T04:27:39Z</time>
            </trkpt>
            <trkpt lon="101.215743" lat="14.298845">
                <ele>24.650000</ele>
                <time>2017-05-28T04:27:54Z</time>
            </trkpt>
            <trkpt lon="101.215733" lat="14.298826">
                <ele>25.130000</ele>
                <time>2017-05-28T04:28:06Z</time>
            </trkpt>
            <trkpt lon="101.215677" lat="14.298816">
                <ele>24.650000</ele>
                <time>2017-05-28T04:28:19Z</time>
            </trkpt>
            <trkpt lon="101.215452" lat="14.298813">
                <ele>24.650000</ele>
                <time>2017-05-28T04:28:29Z</time>
            </trkpt>
            <trkpt lon="101.215097" lat="14.298793">
                <ele>24.170000</ele>
                <time>2017-05-28T04:28:38Z</time>
            </trkpt>
            <trkpt lon="101.215059" lat="14.298779">
                <ele>24.170000</ele>
                <time>2017-05-28T04:28:39Z</time>
            </trkpt>
            <trkpt lon="101.215027" lat="14.298749">
                <ele>24.170000</ele>
                <time>2017-05-28T04:28:40Z</time>
            </trkpt>
            <trkpt lon="101.215000" lat="14.298715">
                <ele>24.170000</ele>
                <time>2017-05-28T04:28:41Z</time>
            </trkpt>
            <trkpt lon="101.214972" lat="14.298678">
                <ele>23.690000</ele>
                <time>2017-05-28T04:28:42Z</time>
            </trkpt>
            <trkpt lon="101.214827" lat="14.298538">
                <ele>22.730000</ele>
                <time>2017-05-28T04:28:46Z</time>
            </trkpt>
            <trkpt lon="101.214782" lat="14.298513">
                <ele>23.690000</ele>
                <time>2017-05-28T04:28:47Z</time>
            </trkpt>
            <trkpt lon="101.214735" lat="14.298492">
                <ele>22.730000</ele>
                <time>2017-05-28T04:28:48Z</time>
            </trkpt>
            <trkpt lon="101.214686" lat="14.298476">
                <ele>22.730000</ele>
                <time>2017-05-28T04:28:49Z</time>
            </trkpt>
            <trkpt lon="101.214635" lat="14.298468">
                <ele>22.730000</ele>
                <time>2017-05-28T04:28:50Z</time>
            </trkpt>
            <trkpt lon="101.214586" lat="14.298462">
                <ele>23.210000</ele>
                <time>2017-05-28T04:28:51Z</time>
            </trkpt>
            <trkpt lon="101.214488" lat="14.298456">
                <ele>22.730000</ele>
                <time>2017-05-28T04:28:53Z</time>
            </trkpt>
            <trkpt lon="101.214337" lat="14.298461">
                <ele>23.210000</ele>
                <time>2017-05-28T04:28:56Z</time>
            </trkpt>
            <trkpt lon="101.214288" lat="14.298459">
                <ele>23.210000</ele>
                <time>2017-05-28T04:28:57Z</time>
            </trkpt>
            <trkpt lon="101.214242" lat="14.298451">
                <ele>23.210000</ele>
                <time>2017-05-28T04:28:58Z</time>
            </trkpt>
            <trkpt lon="101.214201" lat="14.298431">
                <ele>22.730000</ele>
                <time>2017-05-28T04:28:59Z</time>
            </trkpt>
            <trkpt lon="101.214168" lat="14.298400">
                <ele>23.210000</ele>
                <time>2017-05-28T04:29:00Z</time>
            </trkpt>
            <trkpt lon="101.214145" lat="14.298360">
                <ele>23.210000</ele>
                <time>2017-05-28T04:29:01Z</time>
            </trkpt>
            <trkpt lon="101.214130" lat="14.298315">
                <ele>23.210000</ele>
                <time>2017-05-28T04:29:02Z</time>
            </trkpt>
            <trkpt lon="101.214116" lat="14.298269">
                <ele>23.690000</ele>
                <time>2017-05-28T04:29:03Z</time>
            </trkpt>
            <trkpt lon="101.213787" lat="14.297407">
                <ele>23.690000</ele>
                <time>2017-05-28T04:29:22Z</time>
            </trkpt>
            <trkpt lon="101.213683" lat="14.297153">
                <ele>23.690000</ele>
                <time>2017-05-28T04:29:28Z</time>
            </trkpt>
            <trkpt lon="101.213661" lat="14.297113">
                <ele>24.170000</ele>
                <time>2017-05-28T04:29:29Z</time>
            </trkpt>
            <trkpt lon="101.213600" lat="14.296996">
                <ele>24.170000</ele>
                <time>2017-05-28T04:29:32Z</time>
            </trkpt>
            <trkpt lon="101.213571" lat="14.296964">
                <ele>24.170000</ele>
                <time>2017-05-28T04:29:33Z</time>
            </trkpt>
            <trkpt lon="101.213537" lat="14.296936">
                <ele>24.170000</ele>
                <time>2017-05-28T04:29:34Z</time>
            </trkpt>
            <trkpt lon="101.213434" lat="14.296859">
                <ele>24.650000</ele>
                <time>2017-05-28T04:29:37Z</time>
            </trkpt>
            <trkpt lon="101.213406" lat="14.296827">
                <ele>25.130000</ele>
                <time>2017-05-28T04:29:38Z</time>
            </trkpt>
            <trkpt lon="101.213383" lat="14.296790">
                <ele>24.170000</ele>
                <time>2017-05-28T04:29:39Z</time>
            </trkpt>
            <trkpt lon="101.213365" lat="14.296751">
                <ele>24.170000</ele>
                <time>2017-05-28T04:29:40Z</time>
            </trkpt>
            <trkpt lon="101.213351" lat="14.296710">
                <ele>24.650000</ele>
                <time>2017-05-28T04:29:41Z</time>
            </trkpt>
            <trkpt lon="101.213340" lat="14.296666">
                <ele>24.650000</ele>
                <time>2017-05-28T04:29:42Z</time>
            </trkpt>
            <trkpt lon="101.213289" lat="14.296440">
                <ele>24.650000</ele>
                <time>2017-05-28T04:29:47Z</time>
            </trkpt>
            <trkpt lon="101.213277" lat="14.296395">
                <ele>24.650000</ele>
                <time>2017-05-28T04:29:48Z</time>
            </trkpt>
            <trkpt lon="101.213200" lat="14.296126">
                <ele>24.170000</ele>
                <time>2017-05-28T04:29:54Z</time>
            </trkpt>
            <trkpt lon="101.212902" lat="14.295675">
                <ele>24.170000</ele>
                <time>2017-05-28T04:30:06Z</time>
            </trkpt>
            <trkpt lon="101.212558" lat="14.295169">
                <ele>24.650000</ele>
                <time>2017-05-28T04:30:19Z</time>
            </trkpt>
            <trkpt lon="101.212070" lat="14.294498">
                <ele>24.170000</ele>
                <time>2017-05-28T04:30:35Z</time>
            </trkpt>
            <trkpt lon="101.211428" lat="14.293711">
                <ele>25.610000</ele>
                <time>2017-05-28T04:30:55Z</time>
            </trkpt>
            <trkpt lon="101.210723" lat="14.292779">
                <ele>25.130000</ele>
                <time>2017-05-28T04:31:17Z</time>
            </trkpt>
            <trkpt lon="101.210566" lat="14.292583">
                <ele>25.130000</ele>
                <time>2017-05-28T04:31:22Z</time>
            </trkpt>
            <trkpt lon="101.210530" lat="14.292561">
                <ele>24.650000</ele>
                <time>2017-05-28T04:31:23Z</time>
            </trkpt>
            <trkpt lon="101.210486" lat="14.292559">
                <ele>24.650000</ele>
                <time>2017-05-28T04:31:24Z</time>
            </trkpt>
            <trkpt lon="101.210445" lat="14.292577">
                <ele>24.650000</ele>
                <time>2017-05-28T04:31:25Z</time>
            </trkpt>
            <trkpt lon="101.210410" lat="14.292607">
                <ele>24.650000</ele>
                <time>2017-05-28T04:31:26Z</time>
            </trkpt>
            <trkpt lon="101.210377" lat="14.292641">
                <ele>24.650000</ele>
                <time>2017-05-28T04:31:27Z</time>
            </trkpt>
            <trkpt lon="101.210343" lat="14.292673">
                <ele>24.650000</ele>
                <time>2017-05-28T04:31:28Z</time>
            </trkpt>
            <trkpt lon="101.210304" lat="14.292698">
                <ele>24.650000</ele>
                <time>2017-05-28T04:31:29Z</time>
            </trkpt>
            <trkpt lon="101.210262" lat="14.292716">
                <ele>24.650000</ele>
                <time>2017-05-28T04:31:30Z</time>
            </trkpt>
            <trkpt lon="101.210217" lat="14.292724">
                <ele>24.170000</ele>
                <time>2017-05-28T04:31:31Z</time>
            </trkpt>
            <trkpt lon="101.210170" lat="14.292724">
                <ele>24.650000</ele>
                <time>2017-05-28T04:31:32Z</time>
            </trkpt>
            <trkpt lon="101.210124" lat="14.292720">
                <ele>24.650000</ele>
                <time>2017-05-28T04:31:33Z</time>
            </trkpt>
            <trkpt lon="101.210078" lat="14.292713">
                <ele>24.650000</ele>
                <time>2017-05-28T04:31:34Z</time>
            </trkpt>
            <trkpt lon="101.210034" lat="14.292700">
                <ele>25.130000</ele>
                <time>2017-05-28T04:31:35Z</time>
            </trkpt>
            <trkpt lon="101.209991" lat="14.292683">
                <ele>24.650000</ele>
                <time>2017-05-28T04:31:36Z</time>
            </trkpt>
            <trkpt lon="101.209948" lat="14.292665">
                <ele>25.130000</ele>
                <time>2017-05-28T04:31:37Z</time>
            </trkpt>
            <trkpt lon="101.209901" lat="14.292651">
                <ele>24.650000</ele>
                <time>2017-05-28T04:31:38Z</time>
            </trkpt>
            <trkpt lon="101.209852" lat="14.292642">
                <ele>25.130000</ele>
                <time>2017-05-28T04:31:39Z</time>
            </trkpt>
            <trkpt lon="101.209804" lat="14.292638">
                <ele>25.130000</ele>
                <time>2017-05-28T04:31:40Z</time>
            </trkpt>
            <trkpt lon="101.209762" lat="14.292644">
                <ele>25.130000</ele>
                <time>2017-05-28T04:31:41Z</time>
            </trkpt>
            <trkpt lon="101.209725" lat="14.292663">
                <ele>25.610000</ele>
                <time>2017-05-28T04:31:42Z</time>
            </trkpt>
            <trkpt lon="101.209696" lat="14.292694">
                <ele>25.610000</ele>
                <time>2017-05-28T04:31:43Z</time>
            </trkpt>
            <trkpt lon="101.209675" lat="14.292732">
                <ele>25.610000</ele>
                <time>2017-05-28T04:31:44Z</time>
            </trkpt>
            <trkpt lon="101.209655" lat="14.292772">
                <ele>25.610000</ele>
                <time>2017-05-28T04:31:45Z</time>
            </trkpt>
            <trkpt lon="101.209627" lat="14.292808">
                <ele>25.610000</ele>
                <time>2017-05-28T04:31:46Z</time>
            </trkpt>
            <trkpt lon="101.209593" lat="14.292836">
                <ele>25.130000</ele>
                <time>2017-05-28T04:31:47Z</time>
            </trkpt>
            <trkpt lon="101.209554" lat="14.292858">
                <ele>25.130000</ele>
                <time>2017-05-28T04:31:48Z</time>
            </trkpt>
            <trkpt lon="101.209511" lat="14.292869">
                <ele>24.650000</ele>
                <time>2017-05-28T04:31:49Z</time>
            </trkpt>
            <trkpt lon="101.209464" lat="14.292874">
                <ele>25.130000</ele>
                <time>2017-05-28T04:31:50Z</time>
            </trkpt>
            <trkpt lon="101.209422" lat="14.292889">
                <ele>25.130000</ele>
                <time>2017-05-28T04:31:51Z</time>
            </trkpt>
            <trkpt lon="101.209389" lat="14.292916">
                <ele>25.130000</ele>
                <time>2017-05-28T04:31:52Z</time>
            </trkpt>
            <trkpt lon="101.209370" lat="14.292954">
                <ele>25.130000</ele>
                <time>2017-05-28T04:31:53Z</time>
            </trkpt>
            <trkpt lon="101.209365" lat="14.292999">
                <ele>25.130000</ele>
                <time>2017-05-28T04:31:54Z</time>
            </trkpt>
            <trkpt lon="101.209370" lat="14.293045">
                <ele>25.130000</ele>
                <time>2017-05-28T04:31:55Z</time>
            </trkpt>
            <trkpt lon="101.209377" lat="14.293090">
                <ele>25.130000</ele>
                <time>2017-05-28T04:31:56Z</time>
            </trkpt>
            <trkpt lon="101.209383" lat="14.293135">
                <ele>25.130000</ele>
                <time>2017-05-28T04:31:57Z</time>
            </trkpt>
            <trkpt lon="101.209511" lat="14.293650">
                <ele>25.610000</ele>
                <time>2017-05-28T04:32:09Z</time>
            </trkpt>
            <trkpt lon="101.209514" lat="14.293696">
                <ele>25.130000</ele>
                <time>2017-05-28T04:32:10Z</time>
            </trkpt>
            <trkpt lon="101.209510" lat="14.293742">
                <ele>25.130000</ele>
                <time>2017-05-28T04:32:11Z</time>
            </trkpt>
            <trkpt lon="101.209502" lat="14.293833">
                <ele>25.610000</ele>
                <time>2017-05-28T04:32:13Z</time>
            </trkpt>
            <trkpt lon="101.209502" lat="14.293877">
                <ele>25.130000</ele>
                <time>2017-05-28T04:32:14Z</time>
            </trkpt>
            <trkpt lon="101.209511" lat="14.293963">
                <ele>25.610000</ele>
                <time>2017-05-28T04:32:16Z</time>
            </trkpt>
            <trkpt lon="101.209579" lat="14.294302">
                <ele>25.610000</ele>
                <time>2017-05-28T04:32:23Z</time>
            </trkpt>
            <trkpt lon="101.209581" lat="14.294352">
                <ele>25.610000</ele>
                <time>2017-05-28T04:32:24Z</time>
            </trkpt>
            <trkpt lon="101.209576" lat="14.294397">
                <ele>25.610000</ele>
                <time>2017-05-28T04:32:25Z</time>
            </trkpt>
            <trkpt lon="101.209564" lat="14.294442">
                <ele>25.130000</ele>
                <time>2017-05-28T04:32:26Z</time>
            </trkpt>
            <trkpt lon="101.209545" lat="14.294490">
                <ele>25.610000</ele>
                <time>2017-05-28T04:32:27Z</time>
            </trkpt>
            <trkpt lon="101.209523" lat="14.294537">
                <ele>25.610000</ele>
                <time>2017-05-28T04:32:28Z</time>
            </trkpt>
            <trkpt lon="101.209500" lat="14.294582">
                <ele>25.610000</ele>
                <time>2017-05-28T04:32:29Z</time>
            </trkpt>
            <trkpt lon="101.209477" lat="14.294626">
                <ele>25.610000</ele>
                <time>2017-05-28T04:32:30Z</time>
            </trkpt>
            <trkpt lon="101.209203" lat="14.294936">
                <ele>25.130000</ele>
                <time>2017-05-28T04:32:38Z</time>
            </trkpt>
            <trkpt lon="101.209161" lat="14.294964">
                <ele>25.610000</ele>
                <time>2017-05-28T04:32:39Z</time>
            </trkpt>
            <trkpt lon="101.209120" lat="14.294990">
                <ele>25.610000</ele>
                <time>2017-05-28T04:32:40Z</time>
            </trkpt>
            <trkpt lon="101.209082" lat="14.295020">
                <ele>25.610000</ele>
                <time>2017-05-28T04:32:41Z</time>
            </trkpt>
            <trkpt lon="101.209044" lat="14.295052">
                <ele>25.610000</ele>
                <time>2017-05-28T04:32:42Z</time>
            </trkpt>
            <trkpt lon="101.208968" lat="14.295105">
                <ele>25.610000</ele>
                <time>2017-05-28T04:32:44Z</time>
            </trkpt>
            <trkpt lon="101.208929" lat="14.295121">
                <ele>25.610000</ele>
                <time>2017-05-28T04:32:45Z</time>
            </trkpt>
            <trkpt lon="101.208888" lat="14.295128">
                <ele>25.610000</ele>
                <time>2017-05-28T04:32:46Z</time>
            </trkpt>
            <trkpt lon="101.208845" lat="14.295126">
                <ele>25.130000</ele>
                <time>2017-05-28T04:32:47Z</time>
            </trkpt>
            <trkpt lon="101.208804" lat="14.295108">
                <ele>25.130000</ele>
                <time>2017-05-28T04:32:48Z</time>
            </trkpt>
            <trkpt lon="101.208764" lat="14.295082">
                <ele>25.130000</ele>
                <time>2017-05-28T04:32:49Z</time>
            </trkpt>
            <trkpt lon="101.208644" lat="14.295000">
                <ele>25.130000</ele>
                <time>2017-05-28T04:32:52Z</time>
            </trkpt>
            <trkpt lon="101.208605" lat="14.294981">
                <ele>25.610000</ele>
                <time>2017-05-28T04:32:53Z</time>
            </trkpt>
            <trkpt lon="101.208564" lat="14.294967">
                <ele>25.130000</ele>
                <time>2017-05-28T04:32:54Z</time>
            </trkpt>
            <trkpt lon="101.208522" lat="14.294959">
                <ele>25.130000</ele>
                <time>2017-05-28T04:32:55Z</time>
            </trkpt>
            <trkpt lon="101.208480" lat="14.294952">
                <ele>25.130000</ele>
                <time>2017-05-28T04:32:56Z</time>
            </trkpt>
            <trkpt lon="101.208442" lat="14.294941">
                <ele>25.610000</ele>
                <time>2017-05-28T04:32:57Z</time>
            </trkpt>
            <trkpt lon="101.208409" lat="14.294919">
                <ele>25.130000</ele>
                <time>2017-05-28T04:32:58Z</time>
            </trkpt>
            <trkpt lon="101.208378" lat="14.294895">
                <ele>26.090000</ele>
                <time>2017-05-28T04:32:59Z</time>
            </trkpt>
            <trkpt lon="101.208355" lat="14.294867">
                <ele>25.610000</ele>
                <time>2017-05-28T04:33:00Z</time>
            </trkpt>
            <trkpt lon="101.208344" lat="14.294829">
                <ele>26.090000</ele>
                <time>2017-05-28T04:33:01Z</time>
            </trkpt>
            <trkpt lon="101.208332" lat="14.294790">
                <ele>26.090000</ele>
                <time>2017-05-28T04:33:02Z</time>
            </trkpt>
            <trkpt lon="101.208308" lat="14.294759">
                <ele>26.090000</ele>
                <time>2017-05-28T04:33:03Z</time>
            </trkpt>
            <trkpt lon="101.208275" lat="14.294745">
                <ele>25.610000</ele>
                <time>2017-05-28T04:33:04Z</time>
            </trkpt>
            <trkpt lon="101.208237" lat="14.294753">
                <ele>25.610000</ele>
                <time>2017-05-28T04:33:05Z</time>
            </trkpt>
            <trkpt lon="101.208199" lat="14.294767">
                <ele>25.610000</ele>
                <time>2017-05-28T04:33:06Z</time>
            </trkpt>
            <trkpt lon="101.208166" lat="14.294782">
                <ele>26.090000</ele>
                <time>2017-05-28T04:33:07Z</time>
            </trkpt>
            <trkpt lon="101.208133" lat="14.294801">
                <ele>25.610000</ele>
                <time>2017-05-28T04:33:08Z</time>
            </trkpt>
            <trkpt lon="101.208026" lat="14.294876">
                <ele>26.090000</ele>
                <time>2017-05-28T04:33:11Z</time>
            </trkpt>
            <trkpt lon="101.207993" lat="14.294907">
                <ele>26.090000</ele>
                <time>2017-05-28T04:33:12Z</time>
            </trkpt>
            <trkpt lon="101.207971" lat="14.294946">
                <ele>25.610000</ele>
                <time>2017-05-28T04:33:13Z</time>
            </trkpt>
            <trkpt lon="101.207957" lat="14.294988">
                <ele>25.610000</ele>
                <time>2017-05-28T04:33:14Z</time>
            </trkpt>
            <trkpt lon="101.207948" lat="14.295034">
                <ele>26.090000</ele>
                <time>2017-05-28T04:33:15Z</time>
            </trkpt>
            <trkpt lon="101.207944" lat="14.295080">
                <ele>25.610000</ele>
                <time>2017-05-28T04:33:16Z</time>
            </trkpt>
            <trkpt lon="101.207946" lat="14.295126">
                <ele>25.610000</ele>
                <time>2017-05-28T04:33:17Z</time>
            </trkpt>
            <trkpt lon="101.207950" lat="14.295172">
                <ele>25.610000</ele>
                <time>2017-05-28T04:33:18Z</time>
            </trkpt>
            <trkpt lon="101.207961" lat="14.295268">
                <ele>25.610000</ele>
                <time>2017-05-28T04:33:20Z</time>
            </trkpt>
            <trkpt lon="101.207985" lat="14.295360">
                <ele>26.090000</ele>
                <time>2017-05-28T04:33:22Z</time>
            </trkpt>
            <trkpt lon="101.208005" lat="14.295403">
                <ele>26.090000</ele>
                <time>2017-05-28T04:33:23Z</time>
            </trkpt>
            <trkpt lon="101.208270" lat="14.295949">
                <ele>25.610000</ele>
                <time>2017-05-28T04:33:36Z</time>
            </trkpt>
            <trkpt lon="101.208332" lat="14.296444">
                <ele>25.130000</ele>
                <time>2017-05-28T04:33:46Z</time>
            </trkpt>
            <trkpt lon="101.208322" lat="14.296489">
                <ele>25.130000</ele>
                <time>2017-05-28T04:33:47Z</time>
            </trkpt>
            <trkpt lon="101.208293" lat="14.296524">
                <ele>25.130000</ele>
                <time>2017-05-28T04:33:48Z</time>
            </trkpt>
            <trkpt lon="101.208253" lat="14.296544">
                <ele>24.650000</ele>
                <time>2017-05-28T04:33:49Z</time>
            </trkpt>
            <trkpt lon="101.208213" lat="14.296553">
                <ele>25.130000</ele>
                <time>2017-05-28T04:33:50Z</time>
            </trkpt>
            <trkpt lon="101.208178" lat="14.296551">
                <ele>25.130000</ele>
                <time>2017-05-28T04:33:51Z</time>
            </trkpt>
            <trkpt lon="101.208142" lat="14.296537">
                <ele>26.090000</ele>
                <time>2017-05-28T04:33:52Z</time>
            </trkpt>
            <trkpt lon="101.208103" lat="14.296515">
                <ele>25.610000</ele>
                <time>2017-05-28T04:33:53Z</time>
            </trkpt>
            <trkpt lon="101.208061" lat="14.296493">
                <ele>26.090000</ele>
                <time>2017-05-28T04:33:54Z</time>
            </trkpt>
            <trkpt lon="101.208016" lat="14.296475">
                <ele>25.610000</ele>
                <time>2017-05-28T04:33:55Z</time>
            </trkpt>
            <trkpt lon="101.207970" lat="14.296460">
                <ele>25.610000</ele>
                <time>2017-05-28T04:33:56Z</time>
            </trkpt>
            <trkpt lon="101.207924" lat="14.296449">
                <ele>25.610000</ele>
                <time>2017-05-28T04:33:57Z</time>
            </trkpt>
            <trkpt lon="101.207877" lat="14.296439">
                <ele>25.610000</ele>
                <time>2017-05-28T04:33:58Z</time>
            </trkpt>
            <trkpt lon="101.207832" lat="14.296432">
                <ele>26.090000</ele>
                <time>2017-05-28T04:33:59Z</time>
            </trkpt>
            <trkpt lon="101.207784" lat="14.296430">
                <ele>26.090000</ele>
                <time>2017-05-28T04:34:00Z</time>
            </trkpt>
            <trkpt lon="101.207736" lat="14.296434">
                <ele>26.090000</ele>
                <time>2017-05-28T04:34:01Z</time>
            </trkpt>
            <trkpt lon="101.207688" lat="14.296441">
                <ele>25.610000</ele>
                <time>2017-05-28T04:34:02Z</time>
            </trkpt>
            <trkpt lon="101.207641" lat="14.296454">
                <ele>25.610000</ele>
                <time>2017-05-28T04:34:03Z</time>
            </trkpt>
            <trkpt lon="101.207595" lat="14.296469">
                <ele>25.610000</ele>
                <time>2017-05-28T04:34:04Z</time>
            </trkpt>
            <trkpt lon="101.207551" lat="14.296487">
                <ele>25.610000</ele>
                <time>2017-05-28T04:34:05Z</time>
            </trkpt>
            <trkpt lon="101.207426" lat="14.296566">
                <ele>25.610000</ele>
                <time>2017-05-28T04:34:08Z</time>
            </trkpt>
            <trkpt lon="101.207395" lat="14.296604">
                <ele>25.130000</ele>
                <time>2017-05-28T04:34:09Z</time>
            </trkpt>
            <trkpt lon="101.207370" lat="14.296646">
                <ele>25.610000</ele>
                <time>2017-05-28T04:34:10Z</time>
            </trkpt>
            <trkpt lon="101.207350" lat="14.296689">
                <ele>25.610000</ele>
                <time>2017-05-28T04:34:11Z</time>
            </trkpt>
            <trkpt lon="101.207334" lat="14.296733">
                <ele>25.610000</ele>
                <time>2017-05-28T04:34:12Z</time>
            </trkpt>
            <trkpt lon="101.207321" lat="14.296776">
                <ele>26.570000</ele>
                <time>2017-05-28T04:34:13Z</time>
            </trkpt>
            <trkpt lon="101.207313" lat="14.296817">
                <ele>26.090000</ele>
                <time>2017-05-28T04:34:14Z</time>
            </trkpt>
            <trkpt lon="101.207313" lat="14.296857">
                <ele>26.090000</ele>
                <time>2017-05-28T04:34:15Z</time>
            </trkpt>
            <trkpt lon="101.207311" lat="14.296892">
                <ele>26.570000</ele>
                <time>2017-05-28T04:34:16Z</time>
            </trkpt>
            <trkpt lon="101.207449" lat="14.297105">
                <ele>27.050000</ele>
                <time>2017-05-28T04:34:23Z</time>
            </trkpt>
            <trkpt lon="101.208019" lat="14.297583">
                <ele>26.570000</ele>
                <time>2017-05-28T04:34:39Z</time>
            </trkpt>
            <trkpt lon="101.208433" lat="14.298421">
                <ele>26.090000</ele>
                <time>2017-05-28T04:34:57Z</time>
            </trkpt>
            <trkpt lon="101.208596" lat="14.298824">
                <ele>25.610000</ele>
                <time>2017-05-28T04:35:05Z</time>
            </trkpt>
            <trkpt lon="101.208595" lat="14.298873">
                <ele>25.610000</ele>
                <time>2017-05-28T04:35:06Z</time>
            </trkpt>
            <trkpt lon="101.208579" lat="14.298920">
                <ele>25.610000</ele>
                <time>2017-05-28T04:35:07Z</time>
            </trkpt>
            <trkpt lon="101.208547" lat="14.298963">
                <ele>25.130000</ele>
                <time>2017-05-28T04:35:08Z</time>
            </trkpt>
            <trkpt lon="101.208507" lat="14.299000">
                <ele>25.610000</ele>
                <time>2017-05-28T04:35:09Z</time>
            </trkpt>
            <trkpt lon="101.208464" lat="14.299037">
                <ele>25.610000</ele>
                <time>2017-05-28T04:35:10Z</time>
            </trkpt>
            <trkpt lon="101.207639" lat="14.299755">
                <ele>26.570000</ele>
                <time>2017-05-28T04:35:30Z</time>
            </trkpt>
            <trkpt lon="101.207607" lat="14.299800">
                <ele>26.570000</ele>
                <time>2017-05-28T04:35:31Z</time>
            </trkpt>
            <trkpt lon="101.207581" lat="14.299850">
                <ele>25.610000</ele>
                <time>2017-05-28T04:35:32Z</time>
            </trkpt>
            <trkpt lon="101.207560" lat="14.299902">
                <ele>25.130000</ele>
                <time>2017-05-28T04:35:33Z</time>
            </trkpt>
            <trkpt lon="101.207529" lat="14.299949">
                <ele>25.610000</ele>
                <time>2017-05-28T04:35:34Z</time>
            </trkpt>
            <trkpt lon="101.207490" lat="14.299989">
                <ele>25.610000</ele>
                <time>2017-05-28T04:35:35Z</time>
            </trkpt>
            <trkpt lon="101.207449" lat="14.300025">
                <ele>26.090000</ele>
                <time>2017-05-28T04:35:36Z</time>
            </trkpt>
            <trkpt lon="101.206655" lat="14.300702">
                <ele>27.050000</ele>
                <time>2017-05-28T04:35:56Z</time>
            </trkpt>
            <trkpt lon="101.206593" lat="14.300773">
                <ele>27.050000</ele>
                <time>2017-05-28T04:35:58Z</time>
            </trkpt>
            <trkpt lon="101.206156" lat="14.301491">
                <ele>27.530000</ele>
                <time>2017-05-28T04:36:15Z</time>
            </trkpt>
            <trkpt lon="101.205988" lat="14.301745">
                <ele>27.050000</ele>
                <time>2017-05-28T04:36:21Z</time>
            </trkpt>
            <trkpt lon="101.205962" lat="14.301788">
                <ele>27.530000</ele>
                <time>2017-05-28T04:36:22Z</time>
            </trkpt>
            <trkpt lon="101.205834" lat="14.302000">
                <ele>27.050000</ele>
                <time>2017-05-28T04:36:27Z</time>
            </trkpt>
            <trkpt lon="101.205782" lat="14.302141">
                <ele>27.050000</ele>
                <time>2017-05-28T04:36:30Z</time>
            </trkpt>
            <trkpt lon="101.205768" lat="14.302190">
                <ele>27.530000</ele>
                <time>2017-05-28T04:36:31Z</time>
            </trkpt>
            <trkpt lon="101.205754" lat="14.302238">
                <ele>27.050000</ele>
                <time>2017-05-28T04:36:32Z</time>
            </trkpt>
            <trkpt lon="101.205568" lat="14.303004">
                <ele>27.050000</ele>
                <time>2017-05-28T04:36:48Z</time>
            </trkpt>
            <trkpt lon="101.205510" lat="14.303311">
                <ele>28.500000</ele>
                <time>2017-05-28T04:36:55Z</time>
            </trkpt>
            <trkpt lon="101.205512" lat="14.303355">
                <ele>28.500000</ele>
                <time>2017-05-28T04:36:56Z</time>
            </trkpt>
            <trkpt lon="101.205529" lat="14.303443">
                <ele>28.500000</ele>
                <time>2017-05-28T04:36:58Z</time>
            </trkpt>
            <trkpt lon="101.205544" lat="14.303484">
                <ele>28.500000</ele>
                <time>2017-05-28T04:36:59Z</time>
            </trkpt>
            <trkpt lon="101.205562" lat="14.303523">
                <ele>28.980000</ele>
                <time>2017-05-28T04:37:00Z</time>
            </trkpt>
            <trkpt lon="101.205722" lat="14.303797">
                <ele>28.980000</ele>
                <time>2017-05-28T04:37:10Z</time>
            </trkpt>
            <trkpt lon="101.206095" lat="14.304323">
                <ele>28.500000</ele>
                <time>2017-05-28T04:37:27Z</time>
            </trkpt>
            <trkpt lon="101.206432" lat="14.304753">
                <ele>28.980000</ele>
                <time>2017-05-28T04:37:40Z</time>
            </trkpt>
            <trkpt lon="101.206469" lat="14.304779">
                <ele>28.980000</ele>
                <time>2017-05-28T04:37:41Z</time>
            </trkpt>
            <trkpt lon="101.206549" lat="14.304820">
                <ele>28.980000</ele>
                <time>2017-05-28T04:37:43Z</time>
            </trkpt>
            <trkpt lon="101.207335" lat="14.305030">
                <ele>28.020000</ele>
                <time>2017-05-28T04:38:00Z</time>
            </trkpt>
            <trkpt lon="101.207776" lat="14.305122">
                <ele>28.500000</ele>
                <time>2017-05-28T04:38:09Z</time>
            </trkpt>
            <trkpt lon="101.207828" lat="14.305126">
                <ele>28.500000</ele>
                <time>2017-05-28T04:38:10Z</time>
            </trkpt>
            <trkpt lon="101.207878" lat="14.305130">
                <ele>28.020000</ele>
                <time>2017-05-28T04:38:11Z</time>
            </trkpt>
            <trkpt lon="101.207929" lat="14.305133">
                <ele>28.500000</ele>
                <time>2017-05-28T04:38:12Z</time>
            </trkpt>
            <trkpt lon="101.207980" lat="14.305131">
                <ele>28.020000</ele>
                <time>2017-05-28T04:38:13Z</time>
            </trkpt>
            <trkpt lon="101.208032" lat="14.305128">
                <ele>28.020000</ele>
                <time>2017-05-28T04:38:14Z</time>
            </trkpt>
            <trkpt lon="101.208356" lat="14.305073">
                <ele>28.500000</ele>
                <time>2017-05-28T04:38:21Z</time>
            </trkpt>
            <trkpt lon="101.208390" lat="14.305090">
                <ele>28.020000</ele>
                <time>2017-05-28T04:38:22Z</time>
            </trkpt>
            <trkpt lon="101.208413" lat="14.305119">
                <ele>28.980000</ele>
                <time>2017-05-28T04:38:23Z</time>
            </trkpt>
            <trkpt lon="101.208622" lat="14.305727">
                <ele>28.500000</ele>
                <time>2017-05-28T04:38:38Z</time>
            </trkpt>
            <trkpt lon="101.208621" lat="14.306438">
                <ele>29.940000</ele>
                <time>2017-05-28T04:38:55Z</time>
            </trkpt>
            <trkpt lon="101.208569" lat="14.306680">
                <ele>30.420000</ele>
                <time>2017-05-28T04:39:04Z</time>
            </trkpt>
            <trkpt lon="101.208572" lat="14.306690">
                <ele>30.900000</ele>
                <time>2017-05-28T04:39:05Z</time>
            </trkpt>
            <trkpt lon="101.208580" lat="14.306697">
                <ele>30.420000</ele>
                <time>2017-05-28T04:39:06Z</time>
            </trkpt>
            <trkpt lon="101.208592" lat="14.306698">
                <ele>30.420000</ele>
                <time>2017-05-28T04:39:07Z</time>
            </trkpt>
            <trkpt lon="101.208603" lat="14.306693">
                <ele>29.940000</ele>
                <time>2017-05-28T04:39:08Z</time>
            </trkpt>
            <trkpt lon="101.208609" lat="14.306683">
                <ele>29.940000</ele>
                <time>2017-05-28T04:39:09Z</time>
            </trkpt>
            <trkpt lon="101.208610" lat="14.306664">
                <ele>30.420000</ele>
                <time>2017-05-28T04:39:10Z</time>
            </trkpt>
            <trkpt lon="101.208606" lat="14.306639">
                <ele>29.940000</ele>
                <time>2017-05-28T04:39:11Z</time>
            </trkpt>
            <trkpt lon="101.208603" lat="14.306612">
                <ele>30.420000</ele>
                <time>2017-05-28T04:39:12Z</time>
            </trkpt>
            <trkpt lon="101.208605" lat="14.306582">
                <ele>29.940000</ele>
                <time>2017-05-28T04:39:13Z</time>
            </trkpt>
            <trkpt lon="101.208610" lat="14.306550">
                <ele>29.940000</ele>
                <time>2017-05-28T04:39:14Z</time>
            </trkpt>
            <trkpt lon="101.208675" lat="14.306042">
                <ele>28.980000</ele>
                <time>2017-05-28T04:39:30Z</time>
            </trkpt>
            <trkpt lon="101.208551" lat="14.305422">
                <ele>28.980000</ele>
                <time>2017-05-28T04:39:48Z</time>
            </trkpt>
            <trkpt lon="101.208556" lat="14.305404">
                <ele>28.980000</ele>
                <time>2017-05-28T04:39:49Z</time>
            </trkpt>
            <trkpt lon="101.208566" lat="14.305396">
                <ele>29.460000</ele>
                <time>2017-05-28T04:39:50Z</time>
            </trkpt>
            <trkpt lon="101.208580" lat="14.305393">
                <ele>28.980000</ele>
                <time>2017-05-28T04:39:51Z</time>
            </trkpt>
            <trkpt lon="101.209060" lat="14.305336">
                <ele>28.020000</ele>
                <time>2017-05-28T04:40:06Z</time>
            </trkpt>
            <trkpt lon="101.209310" lat="14.305349">
                <ele>28.020000</ele>
                <time>2017-05-28T04:40:16Z</time>
            </trkpt>
            <trkpt lon="101.209331" lat="14.305325">
                <ele>27.530000</ele>
                <time>2017-05-28T04:40:20Z</time>
            </trkpt>
            <trkpt lon="101.209252" lat="14.305324">
                <ele>27.530000</ele>
                <time>2017-05-28T04:40:26Z</time>
            </trkpt>
            <trkpt lon="101.209002" lat="14.305332">
                <ele>28.500000</ele>
                <time>2017-05-28T04:40:43Z</time>
            </trkpt>
            <trkpt lon="101.209007" lat="14.305341">
                <ele>28.020000</ele>
                <time>2017-05-28T04:40:47Z</time>
            </trkpt>
            <trkpt lon="101.209076" lat="14.305338">
                <ele>28.020000</ele>
                <time>2017-05-28T04:40:52Z</time>
            </trkpt>
            <trkpt lon="101.209223" lat="14.305332">
                <ele>28.020000</ele>
                <time>2017-05-28T04:41:04Z</time>
            </trkpt>
            <trkpt lon="101.209214" lat="14.305317">
                <ele>28.020000</ele>
                <time>2017-05-28T04:41:06Z</time>
            </trkpt>
            <trkpt lon="101.209195" lat="14.305314">
                <ele>27.530000</ele>
                <time>2017-05-28T04:41:08Z</time>
            </trkpt>
            <trkpt lon="101.208883" lat="14.305334">
                <ele>28.020000</ele>
                <time>2017-05-28T04:41:23Z</time>
            </trkpt>
            <trkpt lon="101.208561" lat="14.305395">
                <ele>28.980000</ele>
                <time>2017-05-28T04:41:37Z</time>
            </trkpt>
            <trkpt lon="101.208516" lat="14.305348">
                <ele>28.980000</ele>
                <time>2017-05-28T04:41:41Z</time>
            </trkpt>
            <trkpt lon="101.208510" lat="14.305324">
                <ele>28.980000</ele>
                <time>2017-05-28T04:41:42Z</time>
            </trkpt>
            <trkpt lon="101.208502" lat="14.305301">
                <ele>28.980000</ele>
                <time>2017-05-28T04:41:43Z</time>
            </trkpt>
            <trkpt lon="101.208357" lat="14.304911">
                <ele>28.500000</ele>
                <time>2017-05-28T04:41:58Z</time>
            </trkpt>
            <trkpt lon="101.208282" lat="14.304716">
                <ele>28.500000</ele>
                <time>2017-05-28T04:42:08Z</time>
            </trkpt>
            <trkpt lon="101.208286" lat="14.304759">
                <ele>28.980000</ele>
                <time>2017-05-28T04:42:13Z</time>
            </trkpt>
            <trkpt lon="101.208293" lat="14.304778">
                <ele>28.980000</ele>
                <time>2017-05-28T04:42:14Z</time>
            </trkpt>
            <trkpt lon="101.208303" lat="14.304798">
                <ele>28.500000</ele>
                <time>2017-05-28T04:42:15Z</time>
            </trkpt>
            <trkpt lon="101.208501" lat="14.305332">
                <ele>28.500000</ele>
                <time>2017-05-28T04:42:31Z</time>
            </trkpt>
            <trkpt lon="101.208658" lat="14.305843">
                <ele>28.980000</ele>
                <time>2017-05-28T04:42:44Z</time>
            </trkpt>
            <trkpt lon="101.208657" lat="14.305883">
                <ele>28.980000</ele>
                <time>2017-05-28T04:42:45Z</time>
            </trkpt>
            <trkpt lon="101.208654" lat="14.305924">
                <ele>28.980000</ele>
                <time>2017-05-28T04:42:46Z</time>
            </trkpt>
            <trkpt lon="101.208613" lat="14.306527">
                <ele>28.980000</ele>
                <time>2017-05-28T04:43:02Z</time>
            </trkpt>
            <trkpt lon="101.208574" lat="14.306652">
                <ele>29.940000</ele>
                <time>2017-05-28T04:43:06Z</time>
            </trkpt>
            <trkpt lon="101.208552" lat="14.306667">
                <ele>29.940000</ele>
                <time>2017-05-28T04:43:07Z</time>
            </trkpt>
            <trkpt lon="101.208527" lat="14.306673">
                <ele>29.940000</ele>
                <time>2017-05-28T04:43:08Z</time>
            </trkpt>
            <trkpt lon="101.208117" lat="14.306658">
                <ele>29.940000</ele>
                <time>2017-05-28T04:43:22Z</time>
            </trkpt>
            <trkpt lon="101.207955" lat="14.306648">
                <ele>30.420000</ele>
                <time>2017-05-28T04:43:26Z</time>
            </trkpt>
            <trkpt lon="101.207677" lat="14.306627">
                <ele>30.420000</ele>
                <time>2017-05-28T04:43:32Z</time>
            </trkpt>
            <trkpt lon="101.206820" lat="14.306560">
                <ele>29.940000</ele>
                <time>2017-05-28T04:43:49Z</time>
            </trkpt>
            <trkpt lon="101.206718" lat="14.306548">
                <ele>29.940000</ele>
                <time>2017-05-28T04:43:51Z</time>
            </trkpt>
            <trkpt lon="101.206667" lat="14.306545">
                <ele>29.940000</ele>
                <time>2017-05-28T04:43:52Z</time>
            </trkpt>
            <trkpt lon="101.206616" lat="14.306541">
                <ele>29.940000</ele>
                <time>2017-05-28T04:43:53Z</time>
            </trkpt>
            <trkpt lon="101.206256" lat="14.306518">
                <ele>29.940000</ele>
                <time>2017-05-28T04:44:00Z</time>
            </trkpt>
            <trkpt lon="101.206206" lat="14.306509">
                <ele>29.940000</ele>
                <time>2017-05-28T04:44:01Z</time>
            </trkpt>
            <trkpt lon="101.206104" lat="14.306488">
                <ele>29.940000</ele>
                <time>2017-05-28T04:44:03Z</time>
            </trkpt>
            <trkpt lon="101.206059" lat="14.306473">
                <ele>29.940000</ele>
                <time>2017-05-28T04:44:04Z</time>
            </trkpt>
            <trkpt lon="101.206018" lat="14.306452">
                <ele>29.940000</ele>
                <time>2017-05-28T04:44:05Z</time>
            </trkpt>
            <trkpt lon="101.205881" lat="14.306350">
                <ele>29.940000</ele>
                <time>2017-05-28T04:44:09Z</time>
            </trkpt>
            <trkpt lon="101.205843" lat="14.306310">
                <ele>29.460000</ele>
                <time>2017-05-28T04:44:10Z</time>
            </trkpt>
            <trkpt lon="101.205774" lat="14.306222">
                <ele>29.940000</ele>
                <time>2017-05-28T04:44:12Z</time>
            </trkpt>
            <trkpt lon="101.205743" lat="14.306178">
                <ele>30.420000</ele>
                <time>2017-05-28T04:44:13Z</time>
            </trkpt>
            <trkpt lon="101.205226" lat="14.305475">
                <ele>29.940000</ele>
                <time>2017-05-28T04:44:29Z</time>
            </trkpt>
            <trkpt lon="101.205025" lat="14.305187">
                <ele>30.420000</ele>
                <time>2017-05-28T04:44:36Z</time>
            </trkpt>
            <trkpt lon="101.204988" lat="14.305158">
                <ele>29.940000</ele>
                <time>2017-05-28T04:44:37Z</time>
            </trkpt>
            <trkpt lon="101.204950" lat="14.305137">
                <ele>30.420000</ele>
                <time>2017-05-28T04:44:38Z</time>
            </trkpt>
            <trkpt lon="101.204914" lat="14.305120">
                <ele>30.420000</ele>
                <time>2017-05-28T04:44:39Z</time>
            </trkpt>
            <trkpt lon="101.204881" lat="14.305100">
                <ele>30.420000</ele>
                <time>2017-05-28T04:44:40Z</time>
            </trkpt>
            <trkpt lon="101.204853" lat="14.305071">
                <ele>29.940000</ele>
                <time>2017-05-28T04:44:41Z</time>
            </trkpt>
            <trkpt lon="101.204829" lat="14.305038">
                <ele>29.940000</ele>
                <time>2017-05-28T04:44:42Z</time>
            </trkpt>
            <trkpt lon="101.204777" lat="14.304977">
                <ele>29.940000</ele>
                <time>2017-05-28T04:44:44Z</time>
            </trkpt>
            <trkpt lon="101.204738" lat="14.304965">
                <ele>29.940000</ele>
                <time>2017-05-28T04:44:45Z</time>
            </trkpt>
            <trkpt lon="101.204638" lat="14.305017">
                <ele>29.940000</ele>
                <time>2017-05-28T04:44:48Z</time>
            </trkpt>
            <trkpt lon="101.204450" lat="14.305159">
                <ele>28.980000</ele>
                <time>2017-05-28T04:44:54Z</time>
            </trkpt>
            <trkpt lon="101.204270" lat="14.305178">
                <ele>29.460000</ele>
                <time>2017-05-28T04:44:58Z</time>
            </trkpt>
            <trkpt lon="101.204059" lat="14.305429">
                <ele>29.940000</ele>
                <time>2017-05-28T04:45:06Z</time>
            </trkpt>
            <trkpt lon="101.204106" lat="14.305594">
                <ele>29.940000</ele>
                <time>2017-05-28T04:45:11Z</time>
            </trkpt>
            <trkpt lon="101.204162" lat="14.305696">
                <ele>29.460000</ele>
                <time>2017-05-28T04:45:14Z</time>
            </trkpt>
            <trkpt lon="101.204269" lat="14.306087">
                <ele>29.940000</ele>
                <time>2017-05-28T04:45:23Z</time>
            </trkpt>
            <trkpt lon="101.204167" lat="14.306253">
                <ele>29.940000</ele>
                <time>2017-05-28T04:45:28Z</time>
            </trkpt>
            <trkpt lon="101.204085" lat="14.306291">
                <ele>29.940000</ele>
                <time>2017-05-28T04:45:30Z</time>
            </trkpt>
            <trkpt lon="101.203998" lat="14.306557">
                <ele>29.940000</ele>
                <time>2017-05-28T04:45:37Z</time>
            </trkpt>
            <trkpt lon="101.204008" lat="14.307002">
                <ele>30.900000</ele>
                <time>2017-05-28T04:45:49Z</time>
            </trkpt>
            <trkpt lon="101.203986" lat="14.307042">
                <ele>30.420000</ele>
                <time>2017-05-28T04:45:50Z</time>
            </trkpt>
            <trkpt lon="101.203996" lat="14.307251">
                <ele>30.900000</ele>
                <time>2017-05-28T04:45:55Z</time>
            </trkpt>
            <trkpt lon="101.204201" lat="14.307798">
                <ele>31.380000</ele>
                <time>2017-05-28T04:46:11Z</time>
            </trkpt>
            <trkpt lon="101.204353" lat="14.308185">
                <ele>31.380000</ele>
                <time>2017-05-28T04:46:22Z</time>
            </trkpt>
            <trkpt lon="101.204277" lat="14.308665">
                <ele>31.380000</ele>
                <time>2017-05-28T04:46:36Z</time>
            </trkpt>
            <trkpt lon="101.204369" lat="14.309157">
                <ele>31.860000</ele>
                <time>2017-05-28T04:46:50Z</time>
            </trkpt>
            <trkpt lon="101.204358" lat="14.309596">
                <ele>32.820000</ele>
                <time>2017-05-28T04:47:05Z</time>
            </trkpt>
            <trkpt lon="101.204273" lat="14.310016">
                <ele>33.300000</ele>
                <time>2017-05-28T04:47:19Z</time>
            </trkpt>
            <trkpt lon="101.204286" lat="14.310097">
                <ele>33.300000</ele>
                <time>2017-05-28T04:47:22Z</time>
            </trkpt>
            <trkpt lon="101.204450" lat="14.310374">
                <ele>34.260000</ele>
                <time>2017-05-28T04:47:35Z</time>
            </trkpt>
            <trkpt lon="101.204642" lat="14.310679">
                <ele>35.230000</ele>
                <time>2017-05-28T04:47:49Z</time>
            </trkpt>
            <trkpt lon="101.204704" lat="14.311038">
                <ele>35.230000</ele>
                <time>2017-05-28T04:48:03Z</time>
            </trkpt>
            <trkpt lon="101.204649" lat="14.311400">
                <ele>36.190000</ele>
                <time>2017-05-28T04:48:18Z</time>
            </trkpt>
            <trkpt lon="101.204503" lat="14.311538">
                <ele>36.670000</ele>
                <time>2017-05-28T04:48:26Z</time>
            </trkpt>
            <trkpt lon="101.204510" lat="14.311637">
                <ele>36.670000</ele>
                <time>2017-05-28T04:48:31Z</time>
            </trkpt>
            <trkpt lon="101.204621" lat="14.311947">
                <ele>37.150000</ele>
                <time>2017-05-28T04:48:45Z</time>
            </trkpt>
            <trkpt lon="101.204774" lat="14.312241">
                <ele>37.150000</ele>
                <time>2017-05-28T04:48:58Z</time>
            </trkpt>
            <trkpt lon="101.204702" lat="14.312618">
                <ele>37.630000</ele>
                <time>2017-05-28T04:49:12Z</time>
            </trkpt>
            <trkpt lon="101.204697" lat="14.312689">
                <ele>38.110000</ele>
                <time>2017-05-28T04:49:15Z</time>
            </trkpt>
            <trkpt lon="101.204674" lat="14.312719">
                <ele>38.590000</ele>
                <time>2017-05-28T04:49:17Z</time>
            </trkpt>
            <trkpt lon="101.204654" lat="14.312728">
                <ele>38.590000</ele>
                <time>2017-05-28T04:49:18Z</time>
            </trkpt>
            <trkpt lon="101.204630" lat="14.312731">
                <ele>38.590000</ele>
                <time>2017-05-28T04:49:19Z</time>
            </trkpt>
            <trkpt lon="101.204601" lat="14.312728">
                <ele>38.590000</ele>
                <time>2017-05-28T04:49:20Z</time>
            </trkpt>
            <trkpt lon="101.204569" lat="14.312723">
                <ele>38.590000</ele>
                <time>2017-05-28T04:49:21Z</time>
            </trkpt>
            <trkpt lon="101.204534" lat="14.312718">
                <ele>38.110000</ele>
                <time>2017-05-28T04:49:22Z</time>
            </trkpt>
            <trkpt lon="101.203792" lat="14.312631">
                <ele>37.150000</ele>
                <time>2017-05-28T04:49:39Z</time>
            </trkpt>
            <trkpt lon="101.203253" lat="14.312558">
                <ele>37.150000</ele>
                <time>2017-05-28T04:49:50Z</time>
            </trkpt>
            <trkpt lon="101.203169" lat="14.312539">
                <ele>37.150000</ele>
                <time>2017-05-28T04:49:52Z</time>
            </trkpt>
            <trkpt lon="101.203125" lat="14.312540">
                <ele>37.150000</ele>
                <time>2017-05-28T04:49:53Z</time>
            </trkpt>
            <trkpt lon="101.203090" lat="14.312560">
                <ele>37.150000</ele>
                <time>2017-05-28T04:49:54Z</time>
            </trkpt>
            <trkpt lon="101.203072" lat="14.312600">
                <ele>36.670000</ele>
                <time>2017-05-28T04:49:55Z</time>
            </trkpt>
            <trkpt lon="101.203065" lat="14.312653">
                <ele>36.670000</ele>
                <time>2017-05-28T04:49:56Z</time>
            </trkpt>
            <trkpt lon="101.203061" lat="14.312709">
                <ele>35.230000</ele>
                <time>2017-05-28T04:49:57Z</time>
            </trkpt>
            <trkpt lon="101.203060" lat="14.312816">
                <ele>36.190000</ele>
                <time>2017-05-28T04:49:59Z</time>
            </trkpt>
            <trkpt lon="101.203280" lat="14.313078">
                <ele>36.670000</ele>
                <time>2017-05-28T04:50:07Z</time>
            </trkpt>
            <trkpt lon="101.203372" lat="14.313084">
                <ele>36.670000</ele>
                <time>2017-05-28T04:50:09Z</time>
            </trkpt>
            <trkpt lon="101.203550" lat="14.313193">
                <ele>37.150000</ele>
                <time>2017-05-28T04:50:14Z</time>
            </trkpt>
            <trkpt lon="101.203589" lat="14.313464">
                <ele>38.110000</ele>
                <time>2017-05-28T04:50:21Z</time>
            </trkpt>
            <trkpt lon="101.203444" lat="14.313970">
                <ele>39.070000</ele>
                <time>2017-05-28T04:50:35Z</time>
            </trkpt>
            <trkpt lon="101.203426" lat="14.314103">
                <ele>39.070000</ele>
                <time>2017-05-28T04:50:39Z</time>
            </trkpt>
            <trkpt lon="101.203663" lat="14.314497">
                <ele>39.550000</ele>
                <time>2017-05-28T04:50:52Z</time>
            </trkpt>
            <trkpt lon="101.203676" lat="14.315077">
                <ele>40.030000</ele>
                <time>2017-05-28T04:51:08Z</time>
            </trkpt>
            <trkpt lon="101.203854" lat="14.315592">
                <ele>40.030000</ele>
                <time>2017-05-28T04:51:23Z</time>
            </trkpt>
            <trkpt lon="101.203992" lat="14.315963">
                <ele>41.950000</ele>
                <time>2017-05-28T04:51:35Z</time>
            </trkpt>
            <trkpt lon="101.203775" lat="14.316342">
                <ele>42.440000</ele>
                <time>2017-05-28T04:51:49Z</time>
            </trkpt>
            <trkpt lon="101.203516" lat="14.316520">
                <ele>42.440000</ele>
                <time>2017-05-28T04:51:58Z</time>
            </trkpt>
            <trkpt lon="101.203365" lat="14.316403">
                <ele>42.440000</ele>
                <time>2017-05-28T04:52:04Z</time>
            </trkpt>
            <trkpt lon="101.203093" lat="14.316165">
                <ele>42.440000</ele>
                <time>2017-05-28T04:52:16Z</time>
            </trkpt>
            <trkpt lon="101.203012" lat="14.316165">
                <ele>41.950000</ele>
                <time>2017-05-28T04:52:19Z</time>
            </trkpt>
            <trkpt lon="101.202873" lat="14.316184">
                <ele>41.950000</ele>
                <time>2017-05-28T04:52:24Z</time>
            </trkpt>
            <trkpt lon="101.202746" lat="14.316221">
                <ele>42.440000</ele>
                <time>2017-05-28T04:52:29Z</time>
            </trkpt>
            <trkpt lon="101.202477" lat="14.316223">
                <ele>42.920000</ele>
                <time>2017-05-28T04:52:40Z</time>
            </trkpt>
            <trkpt lon="101.202248" lat="14.316316">
                <ele>43.400000</ele>
                <time>2017-05-28T04:52:50Z</time>
            </trkpt>
            <trkpt lon="101.202185" lat="14.316350">
                <ele>44.840000</ele>
                <time>2017-05-28T04:52:59Z</time>
            </trkpt>
            <trkpt lon="101.202186" lat="14.316371">
                <ele>44.360000</ele>
                <time>2017-05-28T04:53:02Z</time>
            </trkpt>
            <trkpt lon="101.202218" lat="14.316474">
                <ele>44.360000</ele>
                <time>2017-05-28T04:53:09Z</time>
            </trkpt>
            <trkpt lon="101.202227" lat="14.316495">
                <ele>44.360000</ele>
                <time>2017-05-28T04:53:10Z</time>
            </trkpt>
            <trkpt lon="101.202336" lat="14.316917">
                <ele>45.320000</ele>
                <time>2017-05-28T04:53:29Z</time>
            </trkpt>
            <trkpt lon="101.202320" lat="14.316929">
                <ele>45.320000</ele>
                <time>2017-05-28T04:53:40Z</time>
            </trkpt>
            <trkpt lon="101.202305" lat="14.316935">
                <ele>45.320000</ele>
                <time>2017-05-28T04:53:42Z</time>
            </trkpt>
            <trkpt lon="101.202284" lat="14.316969">
                <ele>45.320000</ele>
                <time>2017-05-28T04:53:50Z</time>
            </trkpt>
            <trkpt lon="101.202030" lat="14.317023">
                <ele>43.400000</ele>
                <time>2017-05-28T04:53:57Z</time>
            </trkpt>
            <trkpt lon="101.201517" lat="14.317110">
                <ele>43.880000</ele>
                <time>2017-05-28T04:54:13Z</time>
            </trkpt>
            <trkpt lon="101.201023" lat="14.317200">
                <ele>44.840000</ele>
                <time>2017-05-28T04:54:28Z</time>
            </trkpt>
            <trkpt lon="101.200821" lat="14.317312">
                <ele>44.840000</ele>
                <time>2017-05-28T04:54:36Z</time>
            </trkpt>
            <trkpt lon="101.200437" lat="14.317362">
                <ele>42.920000</ele>
                <time>2017-05-28T04:54:47Z</time>
            </trkpt>
            <trkpt lon="101.200396" lat="14.317370">
                <ele>44.360000</ele>
                <time>2017-05-28T04:54:49Z</time>
            </trkpt>
            <trkpt lon="101.200283" lat="14.317452">
                <ele>44.840000</ele>
                <time>2017-05-28T04:54:56Z</time>
            </trkpt>
            <trkpt lon="101.199984" lat="14.317563">
                <ele>44.840000</ele>
                <time>2017-05-28T04:55:08Z</time>
            </trkpt>
            <trkpt lon="101.199792" lat="14.317575">
                <ele>45.320000</ele>
                <time>2017-05-28T04:55:17Z</time>
            </trkpt>
            <trkpt lon="101.199703" lat="14.317628">
                <ele>45.320000</ele>
                <time>2017-05-28T04:55:22Z</time>
            </trkpt>
            <trkpt lon="101.199594" lat="14.317674">
                <ele>45.800000</ele>
                <time>2017-05-28T04:55:29Z</time>
            </trkpt>
            <trkpt lon="101.199371" lat="14.317713">
                <ele>45.320000</ele>
                <time>2017-05-28T04:55:42Z</time>
            </trkpt>
            <trkpt lon="101.199361" lat="14.317730">
                <ele>45.320000</ele>
                <time>2017-05-28T04:55:43Z</time>
            </trkpt>
            <trkpt lon="101.199385" lat="14.317984">
                <ele>45.320000</ele>
                <time>2017-05-28T04:55:53Z</time>
            </trkpt>
            <trkpt lon="101.199302" lat="14.318171">
                <ele>45.800000</ele>
                <time>2017-05-28T04:56:01Z</time>
            </trkpt>
            <trkpt lon="101.198949" lat="14.318299">
                <ele>44.840000</ele>
                <time>2017-05-28T04:56:11Z</time>
            </trkpt>
            <trkpt lon="101.198408" lat="14.318277">
                <ele>44.840000</ele>
                <time>2017-05-28T04:56:25Z</time>
            </trkpt>
            <trkpt lon="101.198013" lat="14.318282">
                <ele>45.800000</ele>
                <time>2017-05-28T04:56:37Z</time>
            </trkpt>
            <trkpt lon="101.197815" lat="14.318225">
                <ele>45.800000</ele>
                <time>2017-05-28T04:56:44Z</time>
            </trkpt>
            <trkpt lon="101.197562" lat="14.318339">
                <ele>46.280000</ele>
                <time>2017-05-28T04:56:55Z</time>
            </trkpt>
            <trkpt lon="101.197615" lat="14.318490">
                <ele>46.760000</ele>
                <time>2017-05-28T04:57:02Z</time>
            </trkpt>
            <trkpt lon="101.197698" lat="14.318578">
                <ele>47.240000</ele>
                <time>2017-05-28T04:57:07Z</time>
            </trkpt>
            <trkpt lon="101.197591" lat="14.318653">
                <ele>46.760000</ele>
                <time>2017-05-28T04:57:13Z</time>
            </trkpt>
            <trkpt lon="101.197448" lat="14.318678">
                <ele>46.760000</ele>
                <time>2017-05-28T04:57:16Z</time>
            </trkpt>
            <trkpt lon="101.197313" lat="14.318730">
                <ele>46.280000</ele>
                <time>2017-05-28T04:57:19Z</time>
            </trkpt>
            <trkpt lon="101.197183" lat="14.319060">
                <ele>46.280000</ele>
                <time>2017-05-28T04:57:28Z</time>
            </trkpt>
            <trkpt lon="101.197031" lat="14.319187">
                <ele>46.280000</ele>
                <time>2017-05-28T04:57:33Z</time>
            </trkpt>
            <trkpt lon="101.196633" lat="14.319335">
                <ele>46.760000</ele>
                <time>2017-05-28T04:57:46Z</time>
            </trkpt>
            <trkpt lon="101.196446" lat="14.319458">
                <ele>46.760000</ele>
                <time>2017-05-28T04:57:53Z</time>
            </trkpt>
            <trkpt lon="101.196170" lat="14.319506">
                <ele>46.760000</ele>
                <time>2017-05-28T04:58:01Z</time>
            </trkpt>
            <trkpt lon="101.196010" lat="14.319576">
                <ele>46.760000</ele>
                <time>2017-05-28T04:58:06Z</time>
            </trkpt>
            <trkpt lon="101.195849" lat="14.319790">
                <ele>47.240000</ele>
                <time>2017-05-28T04:58:13Z</time>
            </trkpt>
            <trkpt lon="101.195565" lat="14.319912">
                <ele>47.240000</ele>
                <time>2017-05-28T04:58:21Z</time>
            </trkpt>
            <trkpt lon="101.195539" lat="14.320050">
                <ele>47.240000</ele>
                <time>2017-05-28T04:58:25Z</time>
            </trkpt>
            <trkpt lon="101.195779" lat="14.320648">
                <ele>49.160000</ele>
                <time>2017-05-28T04:58:43Z</time>
            </trkpt>
            <trkpt lon="101.195996" lat="14.321306">
                <ele>49.650000</ele>
                <time>2017-05-28T04:59:02Z</time>
            </trkpt>
            <trkpt lon="101.195899" lat="14.321554">
                <ele>50.130000</ele>
                <time>2017-05-28T04:59:11Z</time>
            </trkpt>
            <trkpt lon="101.195097" lat="14.321884">
                <ele>49.650000</ele>
                <time>2017-05-28T04:59:30Z</time>
            </trkpt>
            <trkpt lon="101.194493" lat="14.322090">
                <ele>49.160000</ele>
                <time>2017-05-28T04:59:43Z</time>
            </trkpt>
            <trkpt lon="101.194296" lat="14.322199">
                <ele>49.160000</ele>
                <time>2017-05-28T04:59:48Z</time>
            </trkpt>
            <trkpt lon="101.194261" lat="14.322231">
                <ele>49.160000</ele>
                <time>2017-05-28T04:59:49Z</time>
            </trkpt>
            <trkpt lon="101.194231" lat="14.322266">
                <ele>48.680000</ele>
                <time>2017-05-28T04:59:50Z</time>
            </trkpt>
            <trkpt lon="101.194204" lat="14.322303">
                <ele>49.650000</ele>
                <time>2017-05-28T04:59:51Z</time>
            </trkpt>
            <trkpt lon="101.194180" lat="14.322340">
                <ele>49.650000</ele>
                <time>2017-05-28T04:59:52Z</time>
            </trkpt>
            <trkpt lon="101.194134" lat="14.322410">
                <ele>49.650000</ele>
                <time>2017-05-28T04:59:54Z</time>
            </trkpt>
            <trkpt lon="101.194145" lat="14.322778">
                <ele>50.610000</ele>
                <time>2017-05-28T05:00:05Z</time>
            </trkpt>
            <trkpt lon="101.194121" lat="14.323302">
                <ele>51.090000</ele>
                <time>2017-05-28T05:00:20Z</time>
            </trkpt>
            <trkpt lon="101.194055" lat="14.323993">
                <ele>52.530000</ele>
                <time>2017-05-28T05:00:40Z</time>
            </trkpt>
            <trkpt lon="101.194245" lat="14.324370">
                <ele>53.490000</ele>
                <time>2017-05-28T05:00:53Z</time>
            </trkpt>
            <trkpt lon="101.194556" lat="14.324630">
                <ele>53.970000</ele>
                <time>2017-05-28T05:01:07Z</time>
            </trkpt>
            <trkpt lon="101.194552" lat="14.324654">
                <ele>53.970000</ele>
                <time>2017-05-28T05:01:08Z</time>
            </trkpt>
            <trkpt lon="101.194517" lat="14.324713">
                <ele>53.490000</ele>
                <time>2017-05-28T05:01:10Z</time>
            </trkpt>
            <trkpt lon="101.194144" lat="14.325358">
                <ele>52.050000</ele>
                <time>2017-05-28T05:01:27Z</time>
            </trkpt>
            <trkpt lon="101.193922" lat="14.325757">
                <ele>52.050000</ele>
                <time>2017-05-28T05:01:37Z</time>
            </trkpt>
            <trkpt lon="101.193841" lat="14.325891">
                <ele>52.050000</ele>
                <time>2017-05-28T05:01:41Z</time>
            </trkpt>
            <trkpt lon="101.193660" lat="14.325912">
                <ele>51.570000</ele>
                <time>2017-05-28T05:01:46Z</time>
            </trkpt>
            <trkpt lon="101.193455" lat="14.325866">
                <ele>51.090000</ele>
                <time>2017-05-28T05:01:51Z</time>
            </trkpt>
            <trkpt lon="101.193238" lat="14.326046">
                <ele>51.090000</ele>
                <time>2017-05-28T05:01:59Z</time>
            </trkpt>
            <trkpt lon="101.192976" lat="14.326686">
                <ele>51.090000</ele>
                <time>2017-05-28T05:02:19Z</time>
            </trkpt>
            <trkpt lon="101.192815" lat="14.327081">
                <ele>51.570000</ele>
                <time>2017-05-28T05:02:34Z</time>
            </trkpt>
            <trkpt lon="101.192655" lat="14.327513">
                <ele>51.090000</ele>
                <time>2017-05-28T05:02:50Z</time>
            </trkpt>
            <trkpt lon="101.192460" lat="14.327964">
                <ele>51.570000</ele>
                <time>2017-05-28T05:03:07Z</time>
            </trkpt>
            <trkpt lon="101.192325" lat="14.328417">
                <ele>51.570000</ele>
                <time>2017-05-28T05:03:25Z</time>
            </trkpt>
            <trkpt lon="101.192334" lat="14.328710">
                <ele>52.050000</ele>
                <time>2017-05-28T05:03:38Z</time>
            </trkpt>
            <trkpt lon="101.192385" lat="14.329078">
                <ele>52.530000</ele>
                <time>2017-05-28T05:03:52Z</time>
            </trkpt>
            <trkpt lon="101.192407" lat="14.329125">
                <ele>52.530000</ele>
                <time>2017-05-28T05:03:54Z</time>
            </trkpt>
            <trkpt lon="101.192442" lat="14.329286">
                <ele>52.530000</ele>
                <time>2017-05-28T05:04:00Z</time>
            </trkpt>
            <trkpt lon="101.192701" lat="14.329640">
                <ele>52.530000</ele>
                <time>2017-05-28T05:04:15Z</time>
            </trkpt>
            <trkpt lon="101.192757" lat="14.329943">
                <ele>53.010000</ele>
                <time>2017-05-28T05:04:26Z</time>
            </trkpt>
            <trkpt lon="101.192799" lat="14.330232">
                <ele>52.530000</ele>
                <time>2017-05-28T05:04:38Z</time>
            </trkpt>
            <trkpt lon="101.192778" lat="14.330426">
                <ele>53.010000</ele>
                <time>2017-05-28T05:04:48Z</time>
            </trkpt>
            <trkpt lon="101.192754" lat="14.330502">
                <ele>51.570000</ele>
                <time>2017-05-28T05:04:51Z</time>
            </trkpt>
            <trkpt lon="101.192745" lat="14.330677">
                <ele>52.530000</ele>
                <time>2017-05-28T05:04:59Z</time>
            </trkpt>
            <trkpt lon="101.192698" lat="14.330760">
                <ele>52.530000</ele>
                <time>2017-05-28T05:05:04Z</time>
            </trkpt>
            <trkpt lon="101.192688" lat="14.330848">
                <ele>52.530000</ele>
                <time>2017-05-28T05:05:08Z</time>
            </trkpt>
            <trkpt lon="101.192825" lat="14.331084">
                <ele>52.050000</ele>
                <time>2017-05-28T05:05:20Z</time>
            </trkpt>
            <trkpt lon="101.192970" lat="14.331245">
                <ele>53.010000</ele>
                <time>2017-05-28T05:05:31Z</time>
            </trkpt>
            <trkpt lon="101.193259" lat="14.331319">
                <ele>53.970000</ele>
                <time>2017-05-28T05:05:45Z</time>
            </trkpt>
            <trkpt lon="101.193657" lat="14.331439">
                <ele>54.450000</ele>
                <time>2017-05-28T05:06:01Z</time>
            </trkpt>
            <trkpt lon="101.193952" lat="14.331586">
                <ele>54.930000</ele>
                <time>2017-05-28T05:06:14Z</time>
            </trkpt>
            <trkpt lon="101.194284" lat="14.331670">
                <ele>55.410000</ele>
                <time>2017-05-28T05:06:27Z</time>
            </trkpt>
            <trkpt lon="101.194546" lat="14.331530">
                <ele>55.890000</ele>
                <time>2017-05-28T05:06:40Z</time>
            </trkpt>
            <trkpt lon="101.194638" lat="14.331445">
                <ele>56.370000</ele>
                <time>2017-05-28T05:06:45Z</time>
            </trkpt>
            <trkpt lon="101.194938" lat="14.331555">
                <ele>56.860000</ele>
                <time>2017-05-28T05:06:58Z</time>
            </trkpt>
            <trkpt lon="101.195024" lat="14.331595">
                <ele>57.340000</ele>
                <time>2017-05-28T05:07:03Z</time>
            </trkpt>
            <trkpt lon="101.195080" lat="14.331665">
                <ele>57.340000</ele>
                <time>2017-05-28T05:07:07Z</time>
            </trkpt>
            <trkpt lon="101.195343" lat="14.332145">
                <ele>57.340000</ele>
                <time>2017-05-28T05:07:23Z</time>
            </trkpt>
            <trkpt lon="101.195455" lat="14.332329">
                <ele>58.300000</ele>
                <time>2017-05-28T05:07:31Z</time>
            </trkpt>
            <trkpt lon="101.195446" lat="14.332357">
                <ele>58.300000</ele>
                <time>2017-05-28T05:07:32Z</time>
            </trkpt>
            <trkpt lon="101.195429" lat="14.332384">
                <ele>58.780000</ele>
                <time>2017-05-28T05:07:33Z</time>
            </trkpt>
            <trkpt lon="101.195412" lat="14.332412">
                <ele>58.300000</ele>
                <time>2017-05-28T05:07:34Z</time>
            </trkpt>
            <trkpt lon="101.195397" lat="14.332443">
                <ele>58.300000</ele>
                <time>2017-05-28T05:07:35Z</time>
            </trkpt>
            <trkpt lon="101.195386" lat="14.332476">
                <ele>58.300000</ele>
                <time>2017-05-28T05:07:36Z</time>
            </trkpt>
            <trkpt lon="101.195384" lat="14.332512">
                <ele>58.300000</ele>
                <time>2017-05-28T05:07:37Z</time>
            </trkpt>
            <trkpt lon="101.195397" lat="14.332549">
                <ele>58.300000</ele>
                <time>2017-05-28T05:07:38Z</time>
            </trkpt>
            <trkpt lon="101.195419" lat="14.332583">
                <ele>57.820000</ele>
                <time>2017-05-28T05:07:39Z</time>
            </trkpt>
            <trkpt lon="101.195443" lat="14.332615">
                <ele>57.820000</ele>
                <time>2017-05-28T05:07:40Z</time>
            </trkpt>
            <trkpt lon="101.195761" lat="14.333109">
                <ele>58.780000</ele>
                <time>2017-05-28T05:07:57Z</time>
            </trkpt>
            <trkpt lon="101.196077" lat="14.333463">
                <ele>58.780000</ele>
                <time>2017-05-28T05:08:11Z</time>
            </trkpt>
            <trkpt lon="101.196464" lat="14.333803">
                <ele>59.260000</ele>
                <time>2017-05-28T05:08:26Z</time>
            </trkpt>
            <trkpt lon="101.196815" lat="14.334049">
                <ele>60.700000</ele>
                <time>2017-05-28T05:08:39Z</time>
            </trkpt>
            <trkpt lon="101.197168" lat="14.334124">
                <ele>61.180000</ele>
                <time>2017-05-28T05:08:50Z</time>
            </trkpt>
            <trkpt lon="101.197653" lat="14.334042">
                <ele>61.660000</ele>
                <time>2017-05-28T05:09:04Z</time>
            </trkpt>
            <trkpt lon="101.197944" lat="14.334046">
                <ele>62.620000</ele>
                <time>2017-05-28T05:09:16Z</time>
            </trkpt>
            <trkpt lon="101.198299" lat="14.334040">
                <ele>65.030000</ele>
                <time>2017-05-28T05:09:32Z</time>
            </trkpt>
            <trkpt lon="101.198639" lat="14.334094">
                <ele>65.990000</ele>
                <time>2017-05-28T05:09:48Z</time>
            </trkpt>
            <trkpt lon="101.198889" lat="14.334131">
                <ele>67.430000</ele>
                <time>2017-05-28T05:10:01Z</time>
            </trkpt>
            <trkpt lon="101.199182" lat="14.334161">
                <ele>68.390000</ele>
                <time>2017-05-28T05:10:17Z</time>
            </trkpt>
            <trkpt lon="101.199596" lat="14.334146">
                <ele>69.350000</ele>
                <time>2017-05-28T05:10:33Z</time>
            </trkpt>
            <trkpt lon="101.199882" lat="14.334134">
                <ele>70.310000</ele>
                <time>2017-05-28T05:10:45Z</time>
            </trkpt>
            <trkpt lon="101.200176" lat="14.334128">
                <ele>71.270000</ele>
                <time>2017-05-28T05:10:58Z</time>
            </trkpt>
            <trkpt lon="101.200440" lat="14.334163">
                <ele>71.270000</ele>
                <time>2017-05-28T05:11:09Z</time>
            </trkpt>
            <trkpt lon="101.200769" lat="14.334261">
                <ele>72.720000</ele>
                <time>2017-05-28T05:11:22Z</time>
            </trkpt>
            <trkpt lon="101.201137" lat="14.334365">
                <ele>73.200000</ele>
                <time>2017-05-28T05:11:36Z</time>
            </trkpt>
            <trkpt lon="101.201349" lat="14.334436">
                <ele>74.160000</ele>
                <time>2017-05-28T05:11:47Z</time>
            </trkpt>
            <trkpt lon="101.201537" lat="14.334515">
                <ele>76.560000</ele>
                <time>2017-05-28T05:12:01Z</time>
            </trkpt>
            <trkpt lon="101.201758" lat="14.334594">
                <ele>78.970000</ele>
                <time>2017-05-28T05:12:18Z</time>
            </trkpt>
            <trkpt lon="101.201952" lat="14.334624">
                <ele>82.330000</ele>
                <time>2017-05-28T05:12:32Z</time>
            </trkpt>
            <trkpt lon="101.202148" lat="14.334661">
                <ele>85.210000</ele>
                <time>2017-05-28T05:12:46Z</time>
            </trkpt>
            <trkpt lon="101.202196" lat="14.334655">
                <ele>86.180000</ele>
                <time>2017-05-28T05:12:50Z</time>
            </trkpt>
            <trkpt lon="101.202401" lat="14.334627">
                <ele>86.660000</ele>
                <time>2017-05-28T05:13:04Z</time>
            </trkpt>
            <trkpt lon="101.202684" lat="14.334623">
                <ele>87.140000</ele>
                <time>2017-05-28T05:13:16Z</time>
            </trkpt>
            <trkpt lon="101.203047" lat="14.334775">
                <ele>87.620000</ele>
                <time>2017-05-28T05:13:28Z</time>
            </trkpt>
            <trkpt lon="101.203176" lat="14.335152">
                <ele>87.620000</ele>
                <time>2017-05-28T05:13:40Z</time>
            </trkpt>
            <trkpt lon="101.203201" lat="14.335450">
                <ele>86.180000</ele>
                <time>2017-05-28T05:13:47Z</time>
            </trkpt>
            <trkpt lon="101.203150" lat="14.335846">
                <ele>88.580000</ele>
                <time>2017-05-28T05:13:59Z</time>
            </trkpt>
            <trkpt lon="101.203071" lat="14.336279">
                <ele>88.580000</ele>
                <time>2017-05-28T05:14:12Z</time>
            </trkpt>
            <trkpt lon="101.203023" lat="14.336600">
                <ele>88.580000</ele>
                <time>2017-05-28T05:14:21Z</time>
            </trkpt>
            <trkpt lon="101.203011" lat="14.336642">
                <ele>88.100000</ele>
                <time>2017-05-28T05:14:22Z</time>
            </trkpt>
            <trkpt lon="101.203002" lat="14.336680">
                <ele>88.100000</ele>
                <time>2017-05-28T05:14:23Z</time>
            </trkpt>
            <trkpt lon="101.202967" lat="14.336857">
                <ele>87.620000</ele>
                <time>2017-05-28T05:14:27Z</time>
            </trkpt>
            <trkpt lon="101.202923" lat="14.337484">
                <ele>84.250000</ele>
                <time>2017-05-28T05:14:38Z</time>
            </trkpt>
            <trkpt lon="101.202955" lat="14.337810">
                <ele>85.690000</ele>
                <time>2017-05-28T05:14:43Z</time>
            </trkpt>
            <trkpt lon="101.202930" lat="14.338163">
                <ele>88.580000</ele>
                <time>2017-05-28T05:14:54Z</time>
            </trkpt>
            <trkpt lon="101.202903" lat="14.338423">
                <ele>90.500000</ele>
                <time>2017-05-28T05:15:07Z</time>
            </trkpt>
            <trkpt lon="101.202854" lat="14.338726">
                <ele>90.500000</ele>
                <time>2017-05-28T05:15:18Z</time>
            </trkpt>
            <trkpt lon="101.202823" lat="14.339093">
                <ele>91.460000</ele>
                <time>2017-05-28T05:15:32Z</time>
            </trkpt>
            <trkpt lon="101.202792" lat="14.339334">
                <ele>93.390000</ele>
                <time>2017-05-28T05:15:45Z</time>
            </trkpt>
            <trkpt lon="101.202762" lat="14.339589">
                <ele>96.270000</ele>
                <time>2017-05-28T05:16:00Z</time>
            </trkpt>
            <trkpt lon="101.202742" lat="14.339701">
                <ele>97.230000</ele>
                <time>2017-05-28T05:16:07Z</time>
            </trkpt>
            <trkpt lon="101.202742" lat="14.339716">
                <ele>97.230000</ele>
                <time>2017-05-28T05:16:08Z</time>
            </trkpt>
            <trkpt lon="101.202743" lat="14.339733">
                <ele>96.750000</ele>
                <time>2017-05-28T05:16:09Z</time>
            </trkpt>
            <trkpt lon="101.202747" lat="14.339748">
                <ele>97.230000</ele>
                <time>2017-05-28T05:16:10Z</time>
            </trkpt>
            <trkpt lon="101.202745" lat="14.339765">
                <ele>97.710000</ele>
                <time>2017-05-28T05:16:11Z</time>
            </trkpt>
            <trkpt lon="101.202738" lat="14.339784">
                <ele>97.710000</ele>
                <time>2017-05-28T05:16:12Z</time>
            </trkpt>
            <trkpt lon="101.202733" lat="14.339800">
                <ele>97.710000</ele>
                <time>2017-05-28T05:16:13Z</time>
            </trkpt>
            <trkpt lon="101.202729" lat="14.339815">
                <ele>97.230000</ele>
                <time>2017-05-28T05:16:14Z</time>
            </trkpt>
            <trkpt lon="101.202731" lat="14.339847">
                <ele>97.710000</ele>
                <time>2017-05-28T05:16:16Z</time>
            </trkpt>
            <trkpt lon="101.202731" lat="14.339869">
                <ele>97.230000</ele>
                <time>2017-05-28T05:16:17Z</time>
            </trkpt>
            <trkpt lon="101.202697" lat="14.340164">
                <ele>95.790000</ele>
                <time>2017-05-28T05:16:25Z</time>
            </trkpt>
            <trkpt lon="101.202689" lat="14.340213">
                <ele>95.310000</ele>
                <time>2017-05-28T05:16:26Z</time>
            </trkpt>
            <trkpt lon="101.202686" lat="14.340262">
                <ele>94.830000</ele>
                <time>2017-05-28T05:16:27Z</time>
            </trkpt>
            <trkpt lon="101.202687" lat="14.340306">
                <ele>94.830000</ele>
                <time>2017-05-28T05:16:28Z</time>
            </trkpt>
            <trkpt lon="101.202693" lat="14.340343">
                <ele>95.310000</ele>
                <time>2017-05-28T05:16:29Z</time>
            </trkpt>
            <trkpt lon="101.202706" lat="14.340378">
                <ele>95.310000</ele>
                <time>2017-05-28T05:16:30Z</time>
            </trkpt>
            <trkpt lon="101.202729" lat="14.340410">
                <ele>94.350000</ele>
                <time>2017-05-28T05:16:31Z</time>
            </trkpt>
            <trkpt lon="101.202760" lat="14.340436">
                <ele>94.350000</ele>
                <time>2017-05-28T05:16:32Z</time>
            </trkpt>
            <trkpt lon="101.202945" lat="14.340462">
                <ele>90.980000</ele>
                <time>2017-05-28T05:16:35Z</time>
            </trkpt>
            <trkpt lon="101.203024" lat="14.340446">
                <ele>90.020000</ele>
                <time>2017-05-28T05:16:36Z</time>
            </trkpt>
            <trkpt lon="101.204068" lat="14.340192">
                <ele>89.540000</ele>
                <time>2017-05-28T05:16:51Z</time>
            </trkpt>
            <trkpt lon="101.204234" lat="14.340151">
                <ele>89.060000</ele>
                <time>2017-05-28T05:16:54Z</time>
            </trkpt>
            <trkpt lon="101.204472" lat="14.340142">
                <ele>89.060000</ele>
                <time>2017-05-28T05:16:58Z</time>
            </trkpt>
            <trkpt lon="101.204696" lat="14.340226">
                <ele>89.060000</ele>
                <time>2017-05-28T05:17:03Z</time>
            </trkpt>
            <trkpt lon="101.205132" lat="14.340745">
                <ele>90.500000</ele>
                <time>2017-05-28T05:17:21Z</time>
            </trkpt>
            <trkpt lon="101.205551" lat="14.340987">
                <ele>91.460000</ele>
                <time>2017-05-28T05:17:37Z</time>
            </trkpt>
            <trkpt lon="101.205668" lat="14.341090">
                <ele>92.420000</ele>
                <time>2017-05-28T05:17:44Z</time>
            </trkpt>
            <trkpt lon="101.205647" lat="14.341287">
                <ele>93.390000</ele>
                <time>2017-05-28T05:17:53Z</time>
            </trkpt>
            <trkpt lon="101.205842" lat="14.341408">
                <ele>94.830000</ele>
                <time>2017-05-28T05:18:07Z</time>
            </trkpt>
            <trkpt lon="101.206076" lat="14.341444">
                <ele>97.230000</ele>
                <time>2017-05-28T05:18:20Z</time>
            </trkpt>
            <trkpt lon="101.206283" lat="14.341412">
                <ele>98.190000</ele>
                <time>2017-05-28T05:18:32Z</time>
            </trkpt>
            <trkpt lon="101.206496" lat="14.341287">
                <ele>99.630000</ele>
                <time>2017-05-28T05:18:46Z</time>
            </trkpt>
            <trkpt lon="101.206681" lat="14.341184">
                <ele>100.600000</ele>
                <time>2017-05-28T05:18:58Z</time>
            </trkpt>
            <trkpt lon="101.206658" lat="14.341163">
                <ele>100.110000</ele>
                <time>2017-05-28T05:19:10Z</time>
            </trkpt>
            <trkpt lon="101.206615" lat="14.341130">
                <ele>100.110000</ele>
                <time>2017-05-28T05:19:17Z</time>
            </trkpt>
            <trkpt lon="101.206520" lat="14.341038">
                <ele>99.150000</ele>
                <time>2017-05-28T05:19:32Z</time>
            </trkpt>
        </trkseg>
    </trk>
</gpx>